<?xml version="1.0" encoding="UTF-8" standalone="no" ?>
<gpx xmlns="http://www.topografix.com/GPX/1/1" xmlns:xsi="http://www.w3.org/2001/XMLSchema-instance" xsi:schemaLocation="http://www.topografix.com/GPX/1/1 http://www.topografix.com/GPX/1/1/gpx.xsd" version="1.1" creator="VisuGPX - https://www.visugpx.com">
  <metadata>
    <name>Soues (80) - 13km</name>
    <desc><![CDATA[Walkmeter Randonnée 17 nov. 2013 09:12:43]]></desc>
  </metadata>
  <trk>
    <name><![CDATA[Soues]]></name>
    <trkseg>
      <trkpt lat="49.955" lon="2.05173">
        <ele>19</ele>
        <time>2013-11-17T08:12:43Z</time>
      </trkpt>
      <trkpt lat="49.955" lon="2.05171">
        <ele>19.6</ele>
        <time>2013-11-17T08:12:44Z</time>
      </trkpt>
      <trkpt lat="49.95496" lon="2.05166">
        <ele>22.2</ele>
        <time>2013-11-17T08:12:46Z</time>
      </trkpt>
      <trkpt lat="49.95494" lon="2.05166">
        <ele>23.1</ele>
        <time>2013-11-17T08:12:48Z</time>
      </trkpt>
      <trkpt lat="49.95494" lon="2.05151">
        <ele>23.7</ele>
        <time>2013-11-17T08:12:54Z</time>
      </trkpt>
      <trkpt lat="49.95483" lon="2.05139">
        <ele>24.1</ele>
        <time>2013-11-17T08:12:58Z</time>
      </trkpt>
      <trkpt lat="49.95469" lon="2.05133">
        <ele>25.7</ele>
        <time>2013-11-17T08:13:13Z</time>
      </trkpt>
      <trkpt lat="49.95456" lon="2.05123">
        <ele>26.5</ele>
        <time>2013-11-17T08:13:27Z</time>
      </trkpt>
      <trkpt lat="49.95449" lon="2.05105">
        <ele>24.3</ele>
        <time>2013-11-17T08:13:38Z</time>
      </trkpt>
      <trkpt lat="49.95439" lon="2.0509">
        <ele>24.8</ele>
        <time>2013-11-17T08:13:49Z</time>
      </trkpt>
      <trkpt lat="49.95432" lon="2.05071">
        <ele>25.4</ele>
        <time>2013-11-17T08:14:00Z</time>
      </trkpt>
      <trkpt lat="49.95423" lon="2.05053">
        <ele>25.9</ele>
        <time>2013-11-17T08:14:12Z</time>
      </trkpt>
      <trkpt lat="49.95413" lon="2.05038">
        <ele>26.4</ele>
        <time>2013-11-17T08:14:22Z</time>
      </trkpt>
      <trkpt lat="49.95404" lon="2.05019">
        <ele>26.7</ele>
        <time>2013-11-17T08:14:27Z</time>
      </trkpt>
      <trkpt lat="49.95403" lon="2.05014">
        <ele>26.8</ele>
        <time>2013-11-17T08:14:29Z</time>
      </trkpt>
      <trkpt lat="49.95401" lon="2.04992">
        <ele>27.5</ele>
        <time>2013-11-17T08:14:44Z</time>
      </trkpt>
      <trkpt lat="49.95402" lon="2.04969">
        <ele>28.8</ele>
        <time>2013-11-17T08:15:01Z</time>
      </trkpt>
      <trkpt lat="49.95399" lon="2.04948">
        <ele>30.2</ele>
        <time>2013-11-17T08:15:13Z</time>
      </trkpt>
      <trkpt lat="49.95393" lon="2.04928">
        <ele>30.9</ele>
        <time>2013-11-17T08:15:19Z</time>
      </trkpt>
      <trkpt lat="49.95387" lon="2.04908">
        <ele>31</ele>
        <time>2013-11-17T08:15:28Z</time>
      </trkpt>
      <trkpt lat="49.95381" lon="2.04886">
        <ele>28.8</ele>
        <time>2013-11-17T08:15:43Z</time>
      </trkpt>
      <trkpt lat="49.95379" lon="2.04865">
        <ele>26.5</ele>
        <time>2013-11-17T08:15:57Z</time>
      </trkpt>
      <trkpt lat="49.95377" lon="2.04844">
        <ele>27.2</ele>
        <time>2013-11-17T08:16:13Z</time>
      </trkpt>
      <trkpt lat="49.95369" lon="2.04825">
        <ele>27.6</ele>
        <time>2013-11-17T08:16:21Z</time>
      </trkpt>
      <trkpt lat="49.95365" lon="2.04805">
        <ele>28.1</ele>
        <time>2013-11-17T08:16:33Z</time>
      </trkpt>
      <trkpt lat="49.95357" lon="2.04786">
        <ele>28.6</ele>
        <time>2013-11-17T08:16:43Z</time>
      </trkpt>
      <trkpt lat="49.95354" lon="2.04765">
        <ele>31.4</ele>
        <time>2013-11-17T08:16:54Z</time>
      </trkpt>
      <trkpt lat="49.95349" lon="2.04745">
        <ele>37.5</ele>
        <time>2013-11-17T08:17:06Z</time>
      </trkpt>
      <trkpt lat="49.95344" lon="2.04725">
        <ele>39.4</ele>
        <time>2013-11-17T08:17:16Z</time>
      </trkpt>
      <trkpt lat="49.9534" lon="2.04705">
        <ele>38.1</ele>
        <time>2013-11-17T08:17:30Z</time>
      </trkpt>
      <trkpt lat="49.95337" lon="2.04683">
        <ele>36.6</ele>
        <time>2013-11-17T08:17:44Z</time>
      </trkpt>
      <trkpt lat="49.95328" lon="2.04666">
        <ele>38.5</ele>
        <time>2013-11-17T08:17:52Z</time>
      </trkpt>
      <trkpt lat="49.9532" lon="2.04646">
        <ele>42.1</ele>
        <time>2013-11-17T08:18:02Z</time>
      </trkpt>
      <trkpt lat="49.95311" lon="2.04628">
        <ele>46.8</ele>
        <time>2013-11-17T08:18:12Z</time>
      </trkpt>
      <trkpt lat="49.95309" lon="2.04606">
        <ele>50.4</ele>
        <time>2013-11-17T08:18:25Z</time>
      </trkpt>
      <trkpt lat="49.95304" lon="2.04585">
        <ele>49.8</ele>
        <time>2013-11-17T08:18:35Z</time>
      </trkpt>
      <trkpt lat="49.95311" lon="2.04566">
        <ele>44.2</ele>
        <time>2013-11-17T08:18:52Z</time>
      </trkpt>
      <trkpt lat="49.95308" lon="2.04544">
        <ele>43.3</ele>
        <time>2013-11-17T08:19:02Z</time>
      </trkpt>
      <trkpt lat="49.95304" lon="2.04524">
        <ele>42.5</ele>
        <time>2013-11-17T08:19:12Z</time>
      </trkpt>
      <trkpt lat="49.953" lon="2.04502">
        <ele>41.8</ele>
        <time>2013-11-17T08:19:21Z</time>
      </trkpt>
      <trkpt lat="49.95296" lon="2.04482">
        <ele>41.2</ele>
        <time>2013-11-17T08:19:29Z</time>
      </trkpt>
      <trkpt lat="49.95294" lon="2.04461">
        <ele>51</ele>
        <time>2013-11-17T08:19:43Z</time>
      </trkpt>
      <trkpt lat="49.95286" lon="2.04442">
        <ele>53</ele>
        <time>2013-11-17T08:19:49Z</time>
      </trkpt>
      <trkpt lat="49.9528" lon="2.04422">
        <ele>55.2</ele>
        <time>2013-11-17T08:19:56Z</time>
      </trkpt>
      <trkpt lat="49.95276" lon="2.04402">
        <ele>57.8</ele>
        <time>2013-11-17T08:20:07Z</time>
      </trkpt>
      <trkpt lat="49.95274" lon="2.04381">
        <ele>59.2</ele>
        <time>2013-11-17T08:20:18Z</time>
      </trkpt>
      <trkpt lat="49.95276" lon="2.0436">
        <ele>58.6</ele>
        <time>2013-11-17T08:20:27Z</time>
      </trkpt>
      <trkpt lat="49.95274" lon="2.04337">
        <ele>58.7</ele>
        <time>2013-11-17T08:20:38Z</time>
      </trkpt>
      <trkpt lat="49.95269" lon="2.04318">
        <ele>61</ele>
        <time>2013-11-17T08:20:46Z</time>
      </trkpt>
      <trkpt lat="49.95266" lon="2.04297">
        <ele>61</ele>
        <time>2013-11-17T08:20:55Z</time>
      </trkpt>
      <trkpt lat="49.95263" lon="2.04276">
        <ele>60.7</ele>
        <time>2013-11-17T08:21:03Z</time>
      </trkpt>
      <trkpt lat="49.9526" lon="2.04254">
        <ele>60.3</ele>
        <time>2013-11-17T08:21:11Z</time>
      </trkpt>
      <trkpt lat="49.95261" lon="2.04232">
        <ele>59.8</ele>
        <time>2013-11-17T08:21:22Z</time>
      </trkpt>
      <trkpt lat="49.95261" lon="2.04211">
        <ele>59</ele>
        <time>2013-11-17T08:21:40Z</time>
      </trkpt>
      <trkpt lat="49.95263" lon="2.04189">
        <ele>58.4</ele>
        <time>2013-11-17T08:21:54Z</time>
      </trkpt>
      <trkpt lat="49.95257" lon="2.0417">
        <ele>58</ele>
        <time>2013-11-17T08:22:03Z</time>
      </trkpt>
      <trkpt lat="49.95255" lon="2.04147">
        <ele>62.4</ele>
        <time>2013-11-17T08:22:16Z</time>
      </trkpt>
      <trkpt lat="49.9525" lon="2.04127">
        <ele>64</ele>
        <time>2013-11-17T08:22:25Z</time>
      </trkpt>
      <trkpt lat="49.95243" lon="2.04106">
        <ele>67.5</ele>
        <time>2013-11-17T08:22:36Z</time>
      </trkpt>
      <trkpt lat="49.95233" lon="2.0409">
        <ele>67.2</ele>
        <time>2013-11-17T08:22:43Z</time>
      </trkpt>
      <trkpt lat="49.95224" lon="2.04073">
        <ele>66.4</ele>
        <time>2013-11-17T08:22:49Z</time>
      </trkpt>
      <trkpt lat="49.95227" lon="2.04051">
        <ele>64.3</ele>
        <time>2013-11-17T08:23:04Z</time>
      </trkpt>
      <trkpt lat="49.95225" lon="2.04029">
        <ele>62.3</ele>
        <time>2013-11-17T08:23:20Z</time>
      </trkpt>
      <trkpt lat="49.95211" lon="2.0402">
        <ele>61.2</ele>
        <time>2013-11-17T08:23:28Z</time>
      </trkpt>
      <trkpt lat="49.95203" lon="2.04001">
        <ele>60.1</ele>
        <time>2013-11-17T08:23:36Z</time>
      </trkpt>
      <trkpt lat="49.95193" lon="2.03985">
        <ele>61.4</ele>
        <time>2013-11-17T08:23:44Z</time>
      </trkpt>
      <trkpt lat="49.95187" lon="2.03966">
        <ele>63.8</ele>
        <time>2013-11-17T08:23:58Z</time>
      </trkpt>
      <trkpt lat="49.95178" lon="2.0395">
        <ele>65.1</ele>
        <time>2013-11-17T08:24:07Z</time>
      </trkpt>
      <trkpt lat="49.95169" lon="2.03932">
        <ele>65.7</ele>
        <time>2013-11-17T08:24:16Z</time>
      </trkpt>
      <trkpt lat="49.95158" lon="2.03918">
        <ele>66.2</ele>
        <time>2013-11-17T08:24:24Z</time>
      </trkpt>
      <trkpt lat="49.95147" lon="2.03901">
        <ele>67</ele>
        <time>2013-11-17T08:24:35Z</time>
      </trkpt>
      <trkpt lat="49.95139" lon="2.03884">
        <ele>67.5</ele>
        <time>2013-11-17T08:24:44Z</time>
      </trkpt>
      <trkpt lat="49.9513" lon="2.03866">
        <ele>68.3</ele>
        <time>2013-11-17T08:24:53Z</time>
      </trkpt>
      <trkpt lat="49.95121" lon="2.03849">
        <ele>69.8</ele>
        <time>2013-11-17T08:25:05Z</time>
      </trkpt>
      <trkpt lat="49.95113" lon="2.03832">
        <ele>69.5</ele>
        <time>2013-11-17T08:25:17Z</time>
      </trkpt>
      <trkpt lat="49.95104" lon="2.03817">
        <ele>65</ele>
        <time>2013-11-17T08:25:25Z</time>
      </trkpt>
      <trkpt lat="49.95096" lon="2.03799">
        <ele>66.5</ele>
        <time>2013-11-17T08:25:33Z</time>
      </trkpt>
      <trkpt lat="49.95088" lon="2.03781">
        <ele>68.2</ele>
        <time>2013-11-17T08:25:44Z</time>
      </trkpt>
      <trkpt lat="49.95079" lon="2.03767">
        <ele>68.9</ele>
        <time>2013-11-17T08:25:56Z</time>
      </trkpt>
      <trkpt lat="49.95069" lon="2.0375">
        <ele>69.5</ele>
        <time>2013-11-17T08:26:07Z</time>
      </trkpt>
      <trkpt lat="49.95058" lon="2.03735">
        <ele>70.4</ele>
        <time>2013-11-17T08:26:21Z</time>
      </trkpt>
      <trkpt lat="49.95049" lon="2.03718">
        <ele>71</ele>
        <time>2013-11-17T08:26:32Z</time>
      </trkpt>
      <trkpt lat="49.95038" lon="2.03703">
        <ele>71.5</ele>
        <time>2013-11-17T08:26:39Z</time>
      </trkpt>
      <trkpt lat="49.95027" lon="2.03688">
        <ele>71.8</ele>
        <time>2013-11-17T08:26:52Z</time>
      </trkpt>
      <trkpt lat="49.95017" lon="2.03671">
        <ele>71.2</ele>
        <time>2013-11-17T08:27:01Z</time>
      </trkpt>
      <trkpt lat="49.9501" lon="2.03664">
        <ele>71</ele>
        <time>2013-11-17T08:27:05Z</time>
      </trkpt>
      <trkpt lat="49.94998" lon="2.03652">
        <ele>70.3</ele>
        <time>2013-11-17T08:27:17Z</time>
      </trkpt>
      <trkpt lat="49.94989" lon="2.03636">
        <ele>69.6</ele>
        <time>2013-11-17T08:27:28Z</time>
      </trkpt>
      <trkpt lat="49.94981" lon="2.03625">
        <ele>69</ele>
        <time>2013-11-17T08:27:38Z</time>
      </trkpt>
      <trkpt lat="49.94981" lon="2.03631">
        <ele>70.8</ele>
        <time>2013-11-17T08:27:43Z</time>
      </trkpt>
      <trkpt lat="49.94967" lon="2.03618">
        <ele>73</ele>
        <time>2013-11-17T08:27:49Z</time>
      </trkpt>
      <trkpt lat="49.94964" lon="2.03598">
        <ele>71.9</ele>
        <time>2013-11-17T08:27:57Z</time>
      </trkpt>
      <trkpt lat="49.94955" lon="2.03581">
        <ele>70.3</ele>
        <time>2013-11-17T08:28:09Z</time>
      </trkpt>
      <trkpt lat="49.94945" lon="2.03567">
        <ele>66.9</ele>
        <time>2013-11-17T08:28:19Z</time>
      </trkpt>
      <trkpt lat="49.94933" lon="2.03554">
        <ele>66.4</ele>
        <time>2013-11-17T08:28:30Z</time>
      </trkpt>
      <trkpt lat="49.94921" lon="2.03542">
        <ele>65.9</ele>
        <time>2013-11-17T08:28:40Z</time>
      </trkpt>
      <trkpt lat="49.94908" lon="2.03529">
        <ele>65.5</ele>
        <time>2013-11-17T08:28:50Z</time>
      </trkpt>
      <trkpt lat="49.94896" lon="2.03518">
        <ele>65</ele>
        <time>2013-11-17T08:29:01Z</time>
      </trkpt>
      <trkpt lat="49.94884" lon="2.03507">
        <ele>65.2</ele>
        <time>2013-11-17T08:29:11Z</time>
      </trkpt>
      <trkpt lat="49.94872" lon="2.03497">
        <ele>65.7</ele>
        <time>2013-11-17T08:29:21Z</time>
      </trkpt>
      <trkpt lat="49.94859" lon="2.03489">
        <ele>66.2</ele>
        <time>2013-11-17T08:29:31Z</time>
      </trkpt>
      <trkpt lat="49.94847" lon="2.03478">
        <ele>66.8</ele>
        <time>2013-11-17T08:29:46Z</time>
      </trkpt>
      <trkpt lat="49.94835" lon="2.03467">
        <ele>67.3</ele>
        <time>2013-11-17T08:29:56Z</time>
      </trkpt>
      <trkpt lat="49.94822" lon="2.03456">
        <ele>67.8</ele>
        <time>2013-11-17T08:30:07Z</time>
      </trkpt>
      <trkpt lat="49.94809" lon="2.03445">
        <ele>68.3</ele>
        <time>2013-11-17T08:30:18Z</time>
      </trkpt>
      <trkpt lat="49.94796" lon="2.03437">
        <ele>68.9</ele>
        <time>2013-11-17T08:30:30Z</time>
      </trkpt>
      <trkpt lat="49.94784" lon="2.03425">
        <ele>68.5</ele>
        <time>2013-11-17T08:30:41Z</time>
      </trkpt>
      <trkpt lat="49.94773" lon="2.0341">
        <ele>67.9</ele>
        <time>2013-11-17T08:30:52Z</time>
      </trkpt>
      <trkpt lat="49.94761" lon="2.03397">
        <ele>67.2</ele>
        <time>2013-11-17T08:31:05Z</time>
      </trkpt>
      <trkpt lat="49.94735" lon="2.03372">
        <ele>68.7</ele>
        <time>2013-11-17T08:31:24Z</time>
      </trkpt>
      <trkpt lat="49.94735" lon="2.03372">
        <ele>68.7</ele>
        <time>2013-11-17T08:34:22Z</time>
      </trkpt>
      <trkpt lat="49.94719" lon="2.03361">
        <ele>70.8</ele>
        <time>2013-11-17T08:34:29Z</time>
      </trkpt>
      <trkpt lat="49.9471" lon="2.03379">
        <ele>70.7</ele>
        <time>2013-11-17T08:34:43Z</time>
      </trkpt>
      <trkpt lat="49.94702" lon="2.03398">
        <ele>72.7</ele>
        <time>2013-11-17T08:34:54Z</time>
      </trkpt>
      <trkpt lat="49.94698" lon="2.03414">
        <ele>73.5</ele>
        <time>2013-11-17T08:35:04Z</time>
      </trkpt>
      <trkpt lat="49.94685" lon="2.03423">
        <ele>71.9</ele>
        <time>2013-11-17T08:35:13Z</time>
      </trkpt>
      <trkpt lat="49.94678" lon="2.03429">
        <ele>70.9</ele>
        <time>2013-11-17T08:35:22Z</time>
      </trkpt>
      <trkpt lat="49.94671" lon="2.03418">
        <ele>70.7</ele>
        <time>2013-11-17T08:35:28Z</time>
      </trkpt>
      <trkpt lat="49.94659" lon="2.03433">
        <ele>70.4</ele>
        <time>2013-11-17T08:35:38Z</time>
      </trkpt>
      <trkpt lat="49.9465" lon="2.03449">
        <ele>70</ele>
        <time>2013-11-17T08:35:52Z</time>
      </trkpt>
      <trkpt lat="49.94639" lon="2.03463">
        <ele>69.6</ele>
        <time>2013-11-17T08:36:05Z</time>
      </trkpt>
      <trkpt lat="49.94628" lon="2.03477">
        <ele>69.2</ele>
        <time>2013-11-17T08:36:18Z</time>
      </trkpt>
      <trkpt lat="49.94613" lon="2.03482">
        <ele>68.9</ele>
        <time>2013-11-17T08:36:28Z</time>
      </trkpt>
      <trkpt lat="49.94607" lon="2.035">
        <ele>68.8</ele>
        <time>2013-11-17T08:36:34Z</time>
      </trkpt>
      <trkpt lat="49.94596" lon="2.03515">
        <ele>68.5</ele>
        <time>2013-11-17T08:36:43Z</time>
      </trkpt>
      <trkpt lat="49.94588" lon="2.03532">
        <ele>68.2</ele>
        <time>2013-11-17T08:36:53Z</time>
      </trkpt>
      <trkpt lat="49.94581" lon="2.03552">
        <ele>68.2</ele>
        <time>2013-11-17T08:37:03Z</time>
      </trkpt>
      <trkpt lat="49.94571" lon="2.03569">
        <ele>69.2</ele>
        <time>2013-11-17T08:37:22Z</time>
      </trkpt>
      <trkpt lat="49.94561" lon="2.03586">
        <ele>69.9</ele>
        <time>2013-11-17T08:37:34Z</time>
      </trkpt>
      <trkpt lat="49.94558" lon="2.03607">
        <ele>70.2</ele>
        <time>2013-11-17T08:37:40Z</time>
      </trkpt>
      <trkpt lat="49.94552" lon="2.03629">
        <ele>70.7</ele>
        <time>2013-11-17T08:37:48Z</time>
      </trkpt>
      <trkpt lat="49.94545" lon="2.03651">
        <ele>71.2</ele>
        <time>2013-11-17T08:37:58Z</time>
      </trkpt>
      <trkpt lat="49.94539" lon="2.03676">
        <ele>71.6</ele>
        <time>2013-11-17T08:38:04Z</time>
      </trkpt>
      <trkpt lat="49.94535" lon="2.03687">
        <ele>71.7</ele>
        <time>2013-11-17T08:38:14Z</time>
      </trkpt>
      <trkpt lat="49.94532" lon="2.03664">
        <ele>69.4</ele>
        <time>2013-11-17T08:38:30Z</time>
      </trkpt>
      <trkpt lat="49.94526" lon="2.03641">
        <ele>68.3</ele>
        <time>2013-11-17T08:38:38Z</time>
      </trkpt>
      <trkpt lat="49.94527" lon="2.03618">
        <ele>67.3</ele>
        <time>2013-11-17T08:38:49Z</time>
      </trkpt>
      <trkpt lat="49.94524" lon="2.03597">
        <ele>66.6</ele>
        <time>2013-11-17T08:38:59Z</time>
      </trkpt>
      <trkpt lat="49.94527" lon="2.03574">
        <ele>65.7</ele>
        <time>2013-11-17T08:39:11Z</time>
      </trkpt>
      <trkpt lat="49.94527" lon="2.03552">
        <ele>65</ele>
        <time>2013-11-17T08:39:20Z</time>
      </trkpt>
      <trkpt lat="49.94524" lon="2.03529">
        <ele>65.6</ele>
        <time>2013-11-17T08:39:31Z</time>
      </trkpt>
      <trkpt lat="49.94525" lon="2.03506">
        <ele>67.1</ele>
        <time>2013-11-17T08:39:45Z</time>
      </trkpt>
      <trkpt lat="49.94518" lon="2.03487">
        <ele>68</ele>
        <time>2013-11-17T08:39:53Z</time>
      </trkpt>
      <trkpt lat="49.94515" lon="2.03467">
        <ele>66.9</ele>
        <time>2013-11-17T08:40:03Z</time>
      </trkpt>
      <trkpt lat="49.94512" lon="2.03445">
        <ele>65.6</ele>
        <time>2013-11-17T08:40:15Z</time>
      </trkpt>
      <trkpt lat="49.94504" lon="2.03428">
        <ele>65.5</ele>
        <time>2013-11-17T08:40:25Z</time>
      </trkpt>
      <trkpt lat="49.94497" lon="2.03408">
        <ele>66.4</ele>
        <time>2013-11-17T08:40:35Z</time>
      </trkpt>
      <trkpt lat="49.94491" lon="2.03388">
        <ele>67.4</ele>
        <time>2013-11-17T08:40:46Z</time>
      </trkpt>
      <trkpt lat="49.94485" lon="2.03367">
        <ele>67.4</ele>
        <time>2013-11-17T08:40:55Z</time>
      </trkpt>
      <trkpt lat="49.94478" lon="2.03347">
        <ele>65.6</ele>
        <time>2013-11-17T08:41:05Z</time>
      </trkpt>
      <trkpt lat="49.94473" lon="2.03327">
        <ele>64.8</ele>
        <time>2013-11-17T08:41:16Z</time>
      </trkpt>
      <trkpt lat="49.9447" lon="2.03306">
        <ele>64.7</ele>
        <time>2013-11-17T08:41:25Z</time>
      </trkpt>
      <trkpt lat="49.94465" lon="2.03285">
        <ele>64.4</ele>
        <time>2013-11-17T08:41:38Z</time>
      </trkpt>
      <trkpt lat="49.94459" lon="2.03264">
        <ele>64.2</ele>
        <time>2013-11-17T08:41:49Z</time>
      </trkpt>
      <trkpt lat="49.94453" lon="2.03243">
        <ele>64.1</ele>
        <time>2013-11-17T08:41:58Z</time>
      </trkpt>
      <trkpt lat="49.94445" lon="2.03224">
        <ele>63.8</ele>
        <time>2013-11-17T08:42:09Z</time>
      </trkpt>
      <trkpt lat="49.9444" lon="2.03203">
        <ele>63.7</ele>
        <time>2013-11-17T08:42:18Z</time>
      </trkpt>
      <trkpt lat="49.94433" lon="2.03184">
        <ele>63.5</ele>
        <time>2013-11-17T08:42:26Z</time>
      </trkpt>
      <trkpt lat="49.94424" lon="2.03166">
        <ele>63.3</ele>
        <time>2013-11-17T08:42:40Z</time>
      </trkpt>
      <trkpt lat="49.94418" lon="2.03147">
        <ele>63</ele>
        <time>2013-11-17T08:42:52Z</time>
      </trkpt>
      <trkpt lat="49.94412" lon="2.03128">
        <ele>62.8</ele>
        <time>2013-11-17T08:43:03Z</time>
      </trkpt>
      <trkpt lat="49.94404" lon="2.03111">
        <ele>62.7</ele>
        <time>2013-11-17T08:43:11Z</time>
      </trkpt>
      <trkpt lat="49.94396" lon="2.03092">
        <ele>62.5</ele>
        <time>2013-11-17T08:43:19Z</time>
      </trkpt>
      <trkpt lat="49.94389" lon="2.03073">
        <ele>62.3</ele>
        <time>2013-11-17T08:43:29Z</time>
      </trkpt>
      <trkpt lat="49.94382" lon="2.03053">
        <ele>62.1</ele>
        <time>2013-11-17T08:43:41Z</time>
      </trkpt>
      <trkpt lat="49.94375" lon="2.03035">
        <ele>61.9</ele>
        <time>2013-11-17T08:43:51Z</time>
      </trkpt>
      <trkpt lat="49.94366" lon="2.03017">
        <ele>61.7</ele>
        <time>2013-11-17T08:44:02Z</time>
      </trkpt>
      <trkpt lat="49.94358" lon="2.03">
        <ele>61.5</ele>
        <time>2013-11-17T08:44:11Z</time>
      </trkpt>
      <trkpt lat="49.9435" lon="2.02982">
        <ele>61.4</ele>
        <time>2013-11-17T08:44:20Z</time>
      </trkpt>
      <trkpt lat="49.94342" lon="2.02964">
        <ele>61.2</ele>
        <time>2013-11-17T08:44:27Z</time>
      </trkpt>
      <trkpt lat="49.94338" lon="2.02943">
        <ele>61</ele>
        <time>2013-11-17T08:44:39Z</time>
      </trkpt>
      <trkpt lat="49.9433" lon="2.02926">
        <ele>65.4</ele>
        <time>2013-11-17T08:44:50Z</time>
      </trkpt>
      <trkpt lat="49.94321" lon="2.02906">
        <ele>66.5</ele>
        <time>2013-11-17T08:45:02Z</time>
      </trkpt>
      <trkpt lat="49.94314" lon="2.02886">
        <ele>67.3</ele>
        <time>2013-11-17T08:45:11Z</time>
      </trkpt>
      <trkpt lat="49.94306" lon="2.02868">
        <ele>67.9</ele>
        <time>2013-11-17T08:45:21Z</time>
      </trkpt>
      <trkpt lat="49.94299" lon="2.02849">
        <ele>67.7</ele>
        <time>2013-11-17T08:45:30Z</time>
      </trkpt>
      <trkpt lat="49.94293" lon="2.02831">
        <ele>67.5</ele>
        <time>2013-11-17T08:45:39Z</time>
      </trkpt>
      <trkpt lat="49.9429" lon="2.0281">
        <ele>67.2</ele>
        <time>2013-11-17T08:45:51Z</time>
      </trkpt>
      <trkpt lat="49.94284" lon="2.02787">
        <ele>66.9</ele>
        <time>2013-11-17T08:46:02Z</time>
      </trkpt>
      <trkpt lat="49.94276" lon="2.02767">
        <ele>66.6</ele>
        <time>2013-11-17T08:46:14Z</time>
      </trkpt>
      <trkpt lat="49.94267" lon="2.0275">
        <ele>66.4</ele>
        <time>2013-11-17T08:46:22Z</time>
      </trkpt>
      <trkpt lat="49.9426" lon="2.0273">
        <ele>66.1</ele>
        <time>2013-11-17T08:46:31Z</time>
      </trkpt>
      <trkpt lat="49.94254" lon="2.02711">
        <ele>65.8</ele>
        <time>2013-11-17T08:46:43Z</time>
      </trkpt>
      <trkpt lat="49.94247" lon="2.02692">
        <ele>65.5</ele>
        <time>2013-11-17T08:46:53Z</time>
      </trkpt>
      <trkpt lat="49.94238" lon="2.02673">
        <ele>65.3</ele>
        <time>2013-11-17T08:47:03Z</time>
      </trkpt>
      <trkpt lat="49.94232" lon="2.02653">
        <ele>65</ele>
        <time>2013-11-17T08:47:13Z</time>
      </trkpt>
      <trkpt lat="49.94227" lon="2.02632">
        <ele>66</ele>
        <time>2013-11-17T08:47:24Z</time>
      </trkpt>
      <trkpt lat="49.9422" lon="2.02614">
        <ele>66.9</ele>
        <time>2013-11-17T08:47:33Z</time>
      </trkpt>
      <trkpt lat="49.94214" lon="2.02594">
        <ele>67.9</ele>
        <time>2013-11-17T08:47:43Z</time>
      </trkpt>
      <trkpt lat="49.94209" lon="2.02573">
        <ele>69</ele>
        <time>2013-11-17T08:47:54Z</time>
      </trkpt>
      <trkpt lat="49.94203" lon="2.02552">
        <ele>68.4</ele>
        <time>2013-11-17T08:48:05Z</time>
      </trkpt>
      <trkpt lat="49.94202" lon="2.02531">
        <ele>67.6</ele>
        <time>2013-11-17T08:48:18Z</time>
      </trkpt>
      <trkpt lat="49.94199" lon="2.02509">
        <ele>66.8</ele>
        <time>2013-11-17T08:48:31Z</time>
      </trkpt>
      <trkpt lat="49.94192" lon="2.02491">
        <ele>66.3</ele>
        <time>2013-11-17T08:48:40Z</time>
      </trkpt>
      <trkpt lat="49.94186" lon="2.02471">
        <ele>66.7</ele>
        <time>2013-11-17T08:48:49Z</time>
      </trkpt>
      <trkpt lat="49.94182" lon="2.0245">
        <ele>68.5</ele>
        <time>2013-11-17T08:48:59Z</time>
      </trkpt>
      <trkpt lat="49.94178" lon="2.0243">
        <ele>69.3</ele>
        <time>2013-11-17T08:49:11Z</time>
      </trkpt>
      <trkpt lat="49.94172" lon="2.0241">
        <ele>69.7</ele>
        <time>2013-11-17T08:49:23Z</time>
      </trkpt>
      <trkpt lat="49.94165" lon="2.02391">
        <ele>69.9</ele>
        <time>2013-11-17T08:49:31Z</time>
      </trkpt>
      <trkpt lat="49.94167" lon="2.02368">
        <ele>70.4</ele>
        <time>2013-11-17T08:49:44Z</time>
      </trkpt>
      <trkpt lat="49.94164" lon="2.02347">
        <ele>70.7</ele>
        <time>2013-11-17T08:49:54Z</time>
      </trkpt>
      <trkpt lat="49.9416" lon="2.02326">
        <ele>71</ele>
        <time>2013-11-17T08:50:03Z</time>
      </trkpt>
      <trkpt lat="49.94155" lon="2.02306">
        <ele>71.3</ele>
        <time>2013-11-17T08:50:12Z</time>
      </trkpt>
      <trkpt lat="49.94148" lon="2.02286">
        <ele>71.6</ele>
        <time>2013-11-17T08:50:23Z</time>
      </trkpt>
      <trkpt lat="49.94146" lon="2.02264">
        <ele>72</ele>
        <time>2013-11-17T08:50:34Z</time>
      </trkpt>
      <trkpt lat="49.9414" lon="2.02243">
        <ele>72.4</ele>
        <time>2013-11-17T08:50:42Z</time>
      </trkpt>
      <trkpt lat="49.94135" lon="2.02223">
        <ele>72.8</ele>
        <time>2013-11-17T08:50:50Z</time>
      </trkpt>
      <trkpt lat="49.94132" lon="2.02201">
        <ele>73.3</ele>
        <time>2013-11-17T08:51:00Z</time>
      </trkpt>
      <trkpt lat="49.94131" lon="2.02179">
        <ele>73.8</ele>
        <time>2013-11-17T08:51:11Z</time>
      </trkpt>
      <trkpt lat="49.9413" lon="2.02158">
        <ele>74.3</ele>
        <time>2013-11-17T08:51:21Z</time>
      </trkpt>
      <trkpt lat="49.94131" lon="2.02135">
        <ele>75</ele>
        <time>2013-11-17T08:51:35Z</time>
      </trkpt>
      <trkpt lat="49.94132" lon="2.02113">
        <ele>74.3</ele>
        <time>2013-11-17T08:51:45Z</time>
      </trkpt>
      <trkpt lat="49.94129" lon="2.02092">
        <ele>73.5</ele>
        <time>2013-11-17T08:51:55Z</time>
      </trkpt>
      <trkpt lat="49.94127" lon="2.02069">
        <ele>72.8</ele>
        <time>2013-11-17T08:52:05Z</time>
      </trkpt>
      <trkpt lat="49.94125" lon="2.02047">
        <ele>71.9</ele>
        <time>2013-11-17T08:52:16Z</time>
      </trkpt>
      <trkpt lat="49.94129" lon="2.02026">
        <ele>71.1</ele>
        <time>2013-11-17T08:52:29Z</time>
      </trkpt>
      <trkpt lat="49.94129" lon="2.02003">
        <ele>71.9</ele>
        <time>2013-11-17T08:52:38Z</time>
      </trkpt>
      <trkpt lat="49.94123" lon="2.01984">
        <ele>72.6</ele>
        <time>2013-11-17T08:52:46Z</time>
      </trkpt>
      <trkpt lat="49.94118" lon="2.01962">
        <ele>73.5</ele>
        <time>2013-11-17T08:52:56Z</time>
      </trkpt>
      <trkpt lat="49.94118" lon="2.0194">
        <ele>73.4</ele>
        <time>2013-11-17T08:53:04Z</time>
      </trkpt>
      <trkpt lat="49.94121" lon="2.01922">
        <ele>72</ele>
        <time>2013-11-17T08:53:11Z</time>
      </trkpt>
      <trkpt lat="49.94112" lon="2.01904">
        <ele>72.9</ele>
        <time>2013-11-17T08:53:23Z</time>
      </trkpt>
      <trkpt lat="49.94111" lon="2.01883">
        <ele>74.3</ele>
        <time>2013-11-17T08:53:36Z</time>
      </trkpt>
      <trkpt lat="49.94109" lon="2.01861">
        <ele>74.6</ele>
        <time>2013-11-17T08:53:46Z</time>
      </trkpt>
      <trkpt lat="49.94109" lon="2.01839">
        <ele>74.9</ele>
        <time>2013-11-17T08:53:58Z</time>
      </trkpt>
      <trkpt lat="49.9411" lon="2.01817">
        <ele>75.2</ele>
        <time>2013-11-17T08:54:08Z</time>
      </trkpt>
      <trkpt lat="49.94107" lon="2.01796">
        <ele>75.5</ele>
        <time>2013-11-17T08:54:18Z</time>
      </trkpt>
      <trkpt lat="49.94102" lon="2.01775">
        <ele>75.7</ele>
        <time>2013-11-17T08:54:26Z</time>
      </trkpt>
      <trkpt lat="49.94098" lon="2.01753">
        <ele>76</ele>
        <time>2013-11-17T08:54:35Z</time>
      </trkpt>
      <trkpt lat="49.94098" lon="2.01731">
        <ele>76.3</ele>
        <time>2013-11-17T08:54:46Z</time>
      </trkpt>
      <trkpt lat="49.94097" lon="2.01709">
        <ele>76.7</ele>
        <time>2013-11-17T08:54:57Z</time>
      </trkpt>
      <trkpt lat="49.94096" lon="2.01686">
        <ele>77.1</ele>
        <time>2013-11-17T08:55:10Z</time>
      </trkpt>
      <trkpt lat="49.94095" lon="2.01663">
        <ele>77.3</ele>
        <time>2013-11-17T08:55:19Z</time>
      </trkpt>
      <trkpt lat="49.94093" lon="2.01642">
        <ele>77.6</ele>
        <time>2013-11-17T08:55:28Z</time>
      </trkpt>
      <trkpt lat="49.94094" lon="2.0162">
        <ele>77.9</ele>
        <time>2013-11-17T08:55:40Z</time>
      </trkpt>
      <trkpt lat="49.94094" lon="2.01599">
        <ele>77.5</ele>
        <time>2013-11-17T08:55:52Z</time>
      </trkpt>
      <trkpt lat="49.94094" lon="2.01576">
        <ele>77</ele>
        <time>2013-11-17T08:56:04Z</time>
      </trkpt>
      <trkpt lat="49.94091" lon="2.01555">
        <ele>76.5</ele>
        <time>2013-11-17T08:56:14Z</time>
      </trkpt>
      <trkpt lat="49.94094" lon="2.01533">
        <ele>76</ele>
        <time>2013-11-17T08:56:25Z</time>
      </trkpt>
      <trkpt lat="49.94093" lon="2.0151">
        <ele>75.5</ele>
        <time>2013-11-17T08:56:35Z</time>
      </trkpt>
      <trkpt lat="49.94092" lon="2.01489">
        <ele>75.1</ele>
        <time>2013-11-17T08:56:46Z</time>
      </trkpt>
      <trkpt lat="49.94093" lon="2.01467">
        <ele>76.3</ele>
        <time>2013-11-17T08:56:55Z</time>
      </trkpt>
      <trkpt lat="49.94095" lon="2.01445">
        <ele>78</ele>
        <time>2013-11-17T08:57:08Z</time>
      </trkpt>
      <trkpt lat="49.94094" lon="2.01423">
        <ele>80.7</ele>
        <time>2013-11-17T08:57:18Z</time>
      </trkpt>
      <trkpt lat="49.9409" lon="2.01401">
        <ele>81.5</ele>
        <time>2013-11-17T08:57:26Z</time>
      </trkpt>
      <trkpt lat="49.94088" lon="2.01379">
        <ele>82.3</ele>
        <time>2013-11-17T08:57:37Z</time>
      </trkpt>
      <trkpt lat="49.94087" lon="2.01357">
        <ele>82.9</ele>
        <time>2013-11-17T08:57:44Z</time>
      </trkpt>
      <trkpt lat="49.94087" lon="2.01335">
        <ele>82.2</ele>
        <time>2013-11-17T08:57:56Z</time>
      </trkpt>
      <trkpt lat="49.94094" lon="2.01317">
        <ele>82.9</ele>
        <time>2013-11-17T08:58:07Z</time>
      </trkpt>
      <trkpt lat="49.94091" lon="2.01296">
        <ele>83.5</ele>
        <time>2013-11-17T08:58:16Z</time>
      </trkpt>
      <trkpt lat="49.94087" lon="2.01275">
        <ele>84</ele>
        <time>2013-11-17T08:58:25Z</time>
      </trkpt>
      <trkpt lat="49.94088" lon="2.01253">
        <ele>84.7</ele>
        <time>2013-11-17T08:58:36Z</time>
      </trkpt>
      <trkpt lat="49.94091" lon="2.01232">
        <ele>85.3</ele>
        <time>2013-11-17T08:58:47Z</time>
      </trkpt>
      <trkpt lat="49.94086" lon="2.01209">
        <ele>86</ele>
        <time>2013-11-17T08:58:58Z</time>
      </trkpt>
      <trkpt lat="49.94087" lon="2.01187">
        <ele>85.2</ele>
        <time>2013-11-17T08:59:09Z</time>
      </trkpt>
      <trkpt lat="49.94088" lon="2.01166">
        <ele>84.5</ele>
        <time>2013-11-17T08:59:18Z</time>
      </trkpt>
      <trkpt lat="49.9409" lon="2.01143">
        <ele>83.7</ele>
        <time>2013-11-17T08:59:29Z</time>
      </trkpt>
      <trkpt lat="49.94091" lon="2.01122">
        <ele>83</ele>
        <time>2013-11-17T08:59:38Z</time>
      </trkpt>
      <trkpt lat="49.94095" lon="2.01102">
        <ele>83.7</ele>
        <time>2013-11-17T08:59:53Z</time>
      </trkpt>
      <trkpt lat="49.941" lon="2.01081">
        <ele>84.3</ele>
        <time>2013-11-17T09:00:04Z</time>
      </trkpt>
      <trkpt lat="49.941" lon="2.01059">
        <ele>84.7</ele>
        <time>2013-11-17T09:00:13Z</time>
      </trkpt>
      <trkpt lat="49.94099" lon="2.01038">
        <ele>85</ele>
        <time>2013-11-17T09:00:20Z</time>
      </trkpt>
      <trkpt lat="49.94103" lon="2.01017">
        <ele>85.6</ele>
        <time>2013-11-17T09:00:31Z</time>
      </trkpt>
      <trkpt lat="49.94106" lon="2.00996">
        <ele>85.9</ele>
        <time>2013-11-17T09:00:41Z</time>
      </trkpt>
      <trkpt lat="49.94107" lon="2.00949">
        <ele>82.6</ele>
        <time>2013-11-17T09:00:57Z</time>
      </trkpt>
      <trkpt lat="49.94107" lon="2.00949">
        <ele>82.6</ele>
        <time>2013-11-17T09:07:03Z</time>
      </trkpt>
      <trkpt lat="49.94108" lon="2.00924">
        <ele>80</ele>
        <time>2013-11-17T09:07:11Z</time>
      </trkpt>
      <trkpt lat="49.94104" lon="2.00904">
        <ele>80.2</ele>
        <time>2013-11-17T09:07:21Z</time>
      </trkpt>
      <trkpt lat="49.94109" lon="2.00883">
        <ele>80.4</ele>
        <time>2013-11-17T09:07:32Z</time>
      </trkpt>
      <trkpt lat="49.94112" lon="2.0086">
        <ele>80.6</ele>
        <time>2013-11-17T09:07:42Z</time>
      </trkpt>
      <trkpt lat="49.94115" lon="2.00839">
        <ele>80.8</ele>
        <time>2013-11-17T09:07:52Z</time>
      </trkpt>
      <trkpt lat="49.94119" lon="2.00817">
        <ele>81</ele>
        <time>2013-11-17T09:08:03Z</time>
      </trkpt>
      <trkpt lat="49.94119" lon="2.00796">
        <ele>81.2</ele>
        <time>2013-11-17T09:08:14Z</time>
      </trkpt>
      <trkpt lat="49.94122" lon="2.00774">
        <ele>81.4</ele>
        <time>2013-11-17T09:08:24Z</time>
      </trkpt>
      <trkpt lat="49.94123" lon="2.00753">
        <ele>81.6</ele>
        <time>2013-11-17T09:08:33Z</time>
      </trkpt>
      <trkpt lat="49.94124" lon="2.00732">
        <ele>81.8</ele>
        <time>2013-11-17T09:08:42Z</time>
      </trkpt>
      <trkpt lat="49.94123" lon="2.00709">
        <ele>82</ele>
        <time>2013-11-17T09:08:52Z</time>
      </trkpt>
      <trkpt lat="49.94127" lon="2.00688">
        <ele>81</ele>
        <time>2013-11-17T09:09:02Z</time>
      </trkpt>
      <trkpt lat="49.94129" lon="2.00666">
        <ele>79.9</ele>
        <time>2013-11-17T09:09:12Z</time>
      </trkpt>
      <trkpt lat="49.94131" lon="2.00644">
        <ele>79.6</ele>
        <time>2013-11-17T09:09:23Z</time>
      </trkpt>
      <trkpt lat="49.94133" lon="2.00621">
        <ele>83.2</ele>
        <time>2013-11-17T09:09:36Z</time>
      </trkpt>
      <trkpt lat="49.94135" lon="2.00599">
        <ele>84.7</ele>
        <time>2013-11-17T09:09:47Z</time>
      </trkpt>
      <trkpt lat="49.94142" lon="2.00579">
        <ele>85.6</ele>
        <time>2013-11-17T09:09:58Z</time>
      </trkpt>
      <trkpt lat="49.94145" lon="2.00557">
        <ele>86.6</ele>
        <time>2013-11-17T09:10:10Z</time>
      </trkpt>
      <trkpt lat="49.9415" lon="2.00535">
        <ele>87.4</ele>
        <time>2013-11-17T09:10:20Z</time>
      </trkpt>
      <trkpt lat="49.94147" lon="2.00513">
        <ele>87.6</ele>
        <time>2013-11-17T09:10:28Z</time>
      </trkpt>
      <trkpt lat="49.94145" lon="2.00492">
        <ele>84</ele>
        <time>2013-11-17T09:10:37Z</time>
      </trkpt>
      <trkpt lat="49.94146" lon="2.00471">
        <ele>83.1</ele>
        <time>2013-11-17T09:10:45Z</time>
      </trkpt>
      <trkpt lat="49.94149" lon="2.00449">
        <ele>81.9</ele>
        <time>2013-11-17T09:10:56Z</time>
      </trkpt>
      <trkpt lat="49.94149" lon="2.00427">
        <ele>80.9</ele>
        <time>2013-11-17T09:11:05Z</time>
      </trkpt>
      <trkpt lat="49.94151" lon="2.00405">
        <ele>79.7</ele>
        <time>2013-11-17T09:11:16Z</time>
      </trkpt>
      <trkpt lat="49.94154" lon="2.00382">
        <ele>79</ele>
        <time>2013-11-17T09:11:28Z</time>
      </trkpt>
      <trkpt lat="49.94154" lon="2.0036">
        <ele>79.4</ele>
        <time>2013-11-17T09:11:37Z</time>
      </trkpt>
      <trkpt lat="49.94157" lon="2.00338">
        <ele>80.2</ele>
        <time>2013-11-17T09:11:47Z</time>
      </trkpt>
      <trkpt lat="49.94162" lon="2.00316">
        <ele>81.2</ele>
        <time>2013-11-17T09:11:58Z</time>
      </trkpt>
      <trkpt lat="49.94167" lon="2.00295">
        <ele>81.8</ele>
        <time>2013-11-17T09:12:11Z</time>
      </trkpt>
      <trkpt lat="49.94165" lon="2.00274">
        <ele>81.2</ele>
        <time>2013-11-17T09:12:19Z</time>
      </trkpt>
      <trkpt lat="49.94165" lon="2.00253">
        <ele>80.6</ele>
        <time>2013-11-17T09:12:29Z</time>
      </trkpt>
      <trkpt lat="49.94165" lon="2.00231">
        <ele>80.1</ele>
        <time>2013-11-17T09:12:37Z</time>
      </trkpt>
      <trkpt lat="49.94162" lon="2.0021">
        <ele>79.7</ele>
        <time>2013-11-17T09:12:44Z</time>
      </trkpt>
      <trkpt lat="49.94164" lon="2.00188">
        <ele>78.3</ele>
        <time>2013-11-17T09:13:00Z</time>
      </trkpt>
      <trkpt lat="49.94169" lon="2.00169">
        <ele>76.3</ele>
        <time>2013-11-17T09:13:15Z</time>
      </trkpt>
      <trkpt lat="49.94176" lon="2.00151">
        <ele>77.2</ele>
        <time>2013-11-17T09:13:29Z</time>
      </trkpt>
      <trkpt lat="49.94176" lon="2.00136">
        <ele>78.2</ele>
        <time>2013-11-17T09:13:38Z</time>
      </trkpt>
      <trkpt lat="49.94187" lon="2.00124">
        <ele>79</ele>
        <time>2013-11-17T09:13:46Z</time>
      </trkpt>
      <trkpt lat="49.94201" lon="2.00126">
        <ele>79.9</ele>
        <time>2013-11-17T09:13:55Z</time>
      </trkpt>
      <trkpt lat="49.94214" lon="2.00133">
        <ele>78</ele>
        <time>2013-11-17T09:14:04Z</time>
      </trkpt>
      <trkpt lat="49.94224" lon="2.00117">
        <ele>78.5</ele>
        <time>2013-11-17T09:14:11Z</time>
      </trkpt>
      <trkpt lat="49.94231" lon="2.00101">
        <ele>78.9</ele>
        <time>2013-11-17T09:14:18Z</time>
      </trkpt>
      <trkpt lat="49.94246" lon="2.00102">
        <ele>76.3</ele>
        <time>2013-11-17T09:14:29Z</time>
      </trkpt>
      <trkpt lat="49.9426" lon="2.00099">
        <ele>74.6</ele>
        <time>2013-11-17T09:14:38Z</time>
      </trkpt>
      <trkpt lat="49.94274" lon="2.00093">
        <ele>73.2</ele>
        <time>2013-11-17T09:14:47Z</time>
      </trkpt>
      <trkpt lat="49.94285" lon="2.00082">
        <ele>72</ele>
        <time>2013-11-17T09:14:59Z</time>
      </trkpt>
      <trkpt lat="49.94299" lon="2.00075">
        <ele>71.1</ele>
        <time>2013-11-17T09:15:10Z</time>
      </trkpt>
      <trkpt lat="49.94304" lon="2.00065">
        <ele>70.6</ele>
        <time>2013-11-17T09:15:22Z</time>
      </trkpt>
      <trkpt lat="49.94319" lon="2.00061">
        <ele>72.1</ele>
        <time>2013-11-17T09:15:30Z</time>
      </trkpt>
      <trkpt lat="49.94332" lon="2.00045">
        <ele>73.1</ele>
        <time>2013-11-17T09:15:35Z</time>
      </trkpt>
      <trkpt lat="49.94346" lon="2.00041">
        <ele>74.6</ele>
        <time>2013-11-17T09:15:43Z</time>
      </trkpt>
      <trkpt lat="49.94356" lon="2.00026">
        <ele>75.8</ele>
        <time>2013-11-17T09:15:51Z</time>
      </trkpt>
      <trkpt lat="49.94369" lon="2.00019">
        <ele>77.5</ele>
        <time>2013-11-17T09:16:03Z</time>
      </trkpt>
      <trkpt lat="49.94382" lon="2.00005">
        <ele>79</ele>
        <time>2013-11-17T09:16:14Z</time>
      </trkpt>
      <trkpt lat="49.94387" lon="1.99982">
        <ele>80.4</ele>
        <time>2013-11-17T09:16:21Z</time>
      </trkpt>
      <trkpt lat="49.94393" lon="1.99962">
        <ele>81.8</ele>
        <time>2013-11-17T09:16:29Z</time>
      </trkpt>
      <trkpt lat="49.94407" lon="1.99968">
        <ele>82</ele>
        <time>2013-11-17T09:16:37Z</time>
      </trkpt>
      <trkpt lat="49.9442" lon="1.99974">
        <ele>81.2</ele>
        <time>2013-11-17T09:16:48Z</time>
      </trkpt>
      <trkpt lat="49.9443" lon="1.99958">
        <ele>78</ele>
        <time>2013-11-17T09:16:58Z</time>
      </trkpt>
      <trkpt lat="49.94444" lon="1.99956">
        <ele>77.5</ele>
        <time>2013-11-17T09:17:10Z</time>
      </trkpt>
      <trkpt lat="49.94455" lon="1.99941">
        <ele>77.1</ele>
        <time>2013-11-17T09:17:20Z</time>
      </trkpt>
      <trkpt lat="49.94466" lon="1.99928">
        <ele>76.8</ele>
        <time>2013-11-17T09:17:28Z</time>
      </trkpt>
      <trkpt lat="49.94478" lon="1.99916">
        <ele>76.5</ele>
        <time>2013-11-17T09:17:37Z</time>
      </trkpt>
      <trkpt lat="49.94489" lon="1.99901">
        <ele>76</ele>
        <time>2013-11-17T09:17:49Z</time>
      </trkpt>
      <trkpt lat="49.94498" lon="1.99884">
        <ele>75.5</ele>
        <time>2013-11-17T09:18:01Z</time>
      </trkpt>
      <trkpt lat="49.94509" lon="1.99869">
        <ele>75.1</ele>
        <time>2013-11-17T09:18:12Z</time>
      </trkpt>
      <trkpt lat="49.94524" lon="1.99864">
        <ele>75.3</ele>
        <time>2013-11-17T09:18:22Z</time>
      </trkpt>
      <trkpt lat="49.94537" lon="1.9986">
        <ele>75.8</ele>
        <time>2013-11-17T09:18:32Z</time>
      </trkpt>
      <trkpt lat="49.94549" lon="1.99846">
        <ele>76.2</ele>
        <time>2013-11-17T09:18:42Z</time>
      </trkpt>
      <trkpt lat="49.94555" lon="1.99826">
        <ele>76.6</ele>
        <time>2013-11-17T09:18:50Z</time>
      </trkpt>
      <trkpt lat="49.94564" lon="1.99811">
        <ele>77.2</ele>
        <time>2013-11-17T09:19:04Z</time>
      </trkpt>
      <trkpt lat="49.94572" lon="1.99793">
        <ele>77.5</ele>
        <time>2013-11-17T09:19:10Z</time>
      </trkpt>
      <trkpt lat="49.94586" lon="1.99788">
        <ele>78</ele>
        <time>2013-11-17T09:19:21Z</time>
      </trkpt>
      <trkpt lat="49.94598" lon="1.99777">
        <ele>77.3</ele>
        <time>2013-11-17T09:19:29Z</time>
      </trkpt>
      <trkpt lat="49.94609" lon="1.99765">
        <ele>76.4</ele>
        <time>2013-11-17T09:19:39Z</time>
      </trkpt>
      <trkpt lat="49.94621" lon="1.99753">
        <ele>75.5</ele>
        <time>2013-11-17T09:19:49Z</time>
      </trkpt>
      <trkpt lat="49.94629" lon="1.99735">
        <ele>73.9</ele>
        <time>2013-11-17T09:20:01Z</time>
      </trkpt>
      <trkpt lat="49.94638" lon="1.99717">
        <ele>72.7</ele>
        <time>2013-11-17T09:20:08Z</time>
      </trkpt>
      <trkpt lat="49.9465" lon="1.99705">
        <ele>72.3</ele>
        <time>2013-11-17T09:20:20Z</time>
      </trkpt>
      <trkpt lat="49.94662" lon="1.99693">
        <ele>72.7</ele>
        <time>2013-11-17T09:20:29Z</time>
      </trkpt>
      <trkpt lat="49.94675" lon="1.99687">
        <ele>73.2</ele>
        <time>2013-11-17T09:20:39Z</time>
      </trkpt>
      <trkpt lat="49.94689" lon="1.99689">
        <ele>73.5</ele>
        <time>2013-11-17T09:20:47Z</time>
      </trkpt>
      <trkpt lat="49.94694" lon="1.99667">
        <ele>74</ele>
        <time>2013-11-17T09:20:58Z</time>
      </trkpt>
      <trkpt lat="49.94699" lon="1.99647">
        <ele>74.4</ele>
        <time>2013-11-17T09:21:07Z</time>
      </trkpt>
      <trkpt lat="49.94709" lon="1.99631">
        <ele>75</ele>
        <time>2013-11-17T09:21:22Z</time>
      </trkpt>
      <trkpt lat="49.94709" lon="1.99607">
        <ele>74.2</ele>
        <time>2013-11-17T09:21:31Z</time>
      </trkpt>
      <trkpt lat="49.94711" lon="1.99586">
        <ele>73.5</ele>
        <time>2013-11-17T09:21:39Z</time>
      </trkpt>
      <trkpt lat="49.94717" lon="1.99565">
        <ele>72.7</ele>
        <time>2013-11-17T09:21:48Z</time>
      </trkpt>
      <trkpt lat="49.9472" lon="1.99543">
        <ele>71.8</ele>
        <time>2013-11-17T09:21:58Z</time>
      </trkpt>
      <trkpt lat="49.94725" lon="1.99523">
        <ele>71</ele>
        <time>2013-11-17T09:22:07Z</time>
      </trkpt>
      <trkpt lat="49.9473" lon="1.99503">
        <ele>68.7</ele>
        <time>2013-11-17T09:22:16Z</time>
      </trkpt>
      <trkpt lat="49.9474" lon="1.99486">
        <ele>66.5</ele>
        <time>2013-11-17T09:22:28Z</time>
      </trkpt>
      <trkpt lat="49.94752" lon="1.99474">
        <ele>65.8</ele>
        <time>2013-11-17T09:22:38Z</time>
      </trkpt>
      <trkpt lat="49.94765" lon="1.99465">
        <ele>65.5</ele>
        <time>2013-11-17T09:22:48Z</time>
      </trkpt>
      <trkpt lat="49.94774" lon="1.9945">
        <ele>65.1</ele>
        <time>2013-11-17T09:23:00Z</time>
      </trkpt>
      <trkpt lat="49.94781" lon="1.9943">
        <ele>61.9</ele>
        <time>2013-11-17T09:23:10Z</time>
      </trkpt>
      <trkpt lat="49.9479" lon="1.99413">
        <ele>61.1</ele>
        <time>2013-11-17T09:23:19Z</time>
      </trkpt>
      <trkpt lat="49.94801" lon="1.99401">
        <ele>62.9</ele>
        <time>2013-11-17T09:23:28Z</time>
      </trkpt>
      <trkpt lat="49.94814" lon="1.99391">
        <ele>66</ele>
        <time>2013-11-17T09:23:42Z</time>
      </trkpt>
      <trkpt lat="49.94825" lon="1.99376">
        <ele>67.6</ele>
        <time>2013-11-17T09:23:51Z</time>
      </trkpt>
      <trkpt lat="49.94828" lon="1.99354">
        <ele>67.9</ele>
        <time>2013-11-17T09:23:56Z</time>
      </trkpt>
      <trkpt lat="49.94841" lon="1.99344">
        <ele>67.4</ele>
        <time>2013-11-17T09:24:09Z</time>
      </trkpt>
      <trkpt lat="49.94852" lon="1.9933">
        <ele>67</ele>
        <time>2013-11-17T09:24:19Z</time>
      </trkpt>
      <trkpt lat="49.9486" lon="1.99311">
        <ele>66.8</ele>
        <time>2013-11-17T09:24:25Z</time>
      </trkpt>
      <trkpt lat="49.94867" lon="1.99292">
        <ele>66.3</ele>
        <time>2013-11-17T09:24:38Z</time>
      </trkpt>
      <trkpt lat="49.94872" lon="1.99271">
        <ele>66</ele>
        <time>2013-11-17T09:24:46Z</time>
      </trkpt>
      <trkpt lat="49.94886" lon="1.99264">
        <ele>65.5</ele>
        <time>2013-11-17T09:24:58Z</time>
      </trkpt>
      <trkpt lat="49.94894" lon="1.99244">
        <ele>65.2</ele>
        <time>2013-11-17T09:25:05Z</time>
      </trkpt>
      <trkpt lat="49.949" lon="1.99236">
        <ele>65</ele>
        <time>2013-11-17T09:25:10Z</time>
      </trkpt>
      <trkpt lat="49.94913" lon="1.9923">
        <ele>69</ele>
        <time>2013-11-17T09:25:23Z</time>
      </trkpt>
      <trkpt lat="49.94919" lon="1.99212">
        <ele>69.8</ele>
        <time>2013-11-17T09:25:31Z</time>
      </trkpt>
      <trkpt lat="49.94925" lon="1.99189">
        <ele>70.6</ele>
        <time>2013-11-17T09:25:38Z</time>
      </trkpt>
      <trkpt lat="49.94924" lon="1.99166">
        <ele>71.5</ele>
        <time>2013-11-17T09:25:47Z</time>
      </trkpt>
      <trkpt lat="49.94933" lon="1.99148">
        <ele>72.7</ele>
        <time>2013-11-17T09:25:59Z</time>
      </trkpt>
      <trkpt lat="49.9494" lon="1.99128">
        <ele>73.7</ele>
        <time>2013-11-17T09:26:08Z</time>
      </trkpt>
      <trkpt lat="49.9495" lon="1.99112">
        <ele>72</ele>
        <time>2013-11-17T09:26:16Z</time>
      </trkpt>
      <trkpt lat="49.94957" lon="1.99092">
        <ele>71.6</ele>
        <time>2013-11-17T09:26:27Z</time>
      </trkpt>
      <trkpt lat="49.94965" lon="1.99078">
        <ele>71.3</ele>
        <time>2013-11-17T09:26:36Z</time>
      </trkpt>
      <trkpt lat="49.94977" lon="1.99068">
        <ele>71</ele>
        <time>2013-11-17T09:26:48Z</time>
      </trkpt>
      <trkpt lat="49.94986" lon="1.99052">
        <ele>70.7</ele>
        <time>2013-11-17T09:26:56Z</time>
      </trkpt>
      <trkpt lat="49.94993" lon="1.99035">
        <ele>70.3</ele>
        <time>2013-11-17T09:27:07Z</time>
      </trkpt>
      <trkpt lat="49.94991" lon="1.99013">
        <ele>70</ele>
        <time>2013-11-17T09:27:16Z</time>
      </trkpt>
      <trkpt lat="49.9499" lon="1.98992">
        <ele>69.6</ele>
        <time>2013-11-17T09:27:28Z</time>
      </trkpt>
      <trkpt lat="49.94996" lon="1.98972">
        <ele>69.2</ele>
        <time>2013-11-17T09:27:40Z</time>
      </trkpt>
      <trkpt lat="49.94993" lon="1.9895">
        <ele>69</ele>
        <time>2013-11-17T09:27:49Z</time>
      </trkpt>
      <trkpt lat="49.94991" lon="1.98928">
        <ele>68.7</ele>
        <time>2013-11-17T09:27:58Z</time>
      </trkpt>
      <trkpt lat="49.94987" lon="1.98906">
        <ele>68.3</ele>
        <time>2013-11-17T09:28:09Z</time>
      </trkpt>
      <trkpt lat="49.94989" lon="1.98886">
        <ele>68.8</ele>
        <time>2013-11-17T09:28:21Z</time>
      </trkpt>
      <trkpt lat="49.94985" lon="1.98865">
        <ele>70.8</ele>
        <time>2013-11-17T09:28:31Z</time>
      </trkpt>
      <trkpt lat="49.9498" lon="1.98845">
        <ele>70.2</ele>
        <time>2013-11-17T09:28:40Z</time>
      </trkpt>
      <trkpt lat="49.9498" lon="1.98823">
        <ele>69.2</ele>
        <time>2013-11-17T09:28:53Z</time>
      </trkpt>
      <trkpt lat="49.94979" lon="1.98801">
        <ele>68.2</ele>
        <time>2013-11-17T09:29:06Z</time>
      </trkpt>
      <trkpt lat="49.94973" lon="1.9878">
        <ele>68.8</ele>
        <time>2013-11-17T09:29:16Z</time>
      </trkpt>
      <trkpt lat="49.94974" lon="1.98763">
        <ele>70.5</ele>
        <time>2013-11-17T09:29:32Z</time>
      </trkpt>
      <trkpt lat="49.94982" lon="1.98757">
        <ele>68.1</ele>
        <time>2013-11-17T09:29:59Z</time>
      </trkpt>
      <trkpt lat="49.94982" lon="1.98757">
        <ele>68.1</ele>
        <time>2013-11-17T09:33:06Z</time>
      </trkpt>
      <trkpt lat="49.94987" lon="1.98744">
        <ele>67.1</ele>
        <time>2013-11-17T09:33:15Z</time>
      </trkpt>
      <trkpt lat="49.94999" lon="1.98731">
        <ele>67</ele>
        <time>2013-11-17T09:33:24Z</time>
      </trkpt>
      <trkpt lat="49.95013" lon="1.98722">
        <ele>66.9</ele>
        <time>2013-11-17T09:33:36Z</time>
      </trkpt>
      <trkpt lat="49.95027" lon="1.98714">
        <ele>66.8</ele>
        <time>2013-11-17T09:33:44Z</time>
      </trkpt>
      <trkpt lat="49.9504" lon="1.98703">
        <ele>66.8</ele>
        <time>2013-11-17T09:33:54Z</time>
      </trkpt>
      <trkpt lat="49.95053" lon="1.98691">
        <ele>66.7</ele>
        <time>2013-11-17T09:34:04Z</time>
      </trkpt>
      <trkpt lat="49.95065" lon="1.98678">
        <ele>66.6</ele>
        <time>2013-11-17T09:34:13Z</time>
      </trkpt>
      <trkpt lat="49.95075" lon="1.98663">
        <ele>66.5</ele>
        <time>2013-11-17T09:34:22Z</time>
      </trkpt>
      <trkpt lat="49.9508" lon="1.98644">
        <ele>66.4</ele>
        <time>2013-11-17T09:34:32Z</time>
      </trkpt>
      <trkpt lat="49.95089" lon="1.98627">
        <ele>66.3</ele>
        <time>2013-11-17T09:34:42Z</time>
      </trkpt>
      <trkpt lat="49.95098" lon="1.98612">
        <ele>66.2</ele>
        <time>2013-11-17T09:34:51Z</time>
      </trkpt>
      <trkpt lat="49.9511" lon="1.986">
        <ele>66.1</ele>
        <time>2013-11-17T09:35:02Z</time>
      </trkpt>
      <trkpt lat="49.9511" lon="1.98581">
        <ele>66</ele>
        <time>2013-11-17T09:35:11Z</time>
      </trkpt>
      <trkpt lat="49.95118" lon="1.98563">
        <ele>65.1</ele>
        <time>2013-11-17T09:35:20Z</time>
      </trkpt>
      <trkpt lat="49.95123" lon="1.98542">
        <ele>63.7</ele>
        <time>2013-11-17T09:35:30Z</time>
      </trkpt>
      <trkpt lat="49.95129" lon="1.98523">
        <ele>62.6</ele>
        <time>2013-11-17T09:35:44Z</time>
      </trkpt>
      <trkpt lat="49.95135" lon="1.98502">
        <ele>62.3</ele>
        <time>2013-11-17T09:35:51Z</time>
      </trkpt>
      <trkpt lat="49.95138" lon="1.98481">
        <ele>62.8</ele>
        <time>2013-11-17T09:36:00Z</time>
      </trkpt>
      <trkpt lat="49.9515" lon="1.98469">
        <ele>64.6</ele>
        <time>2013-11-17T09:36:10Z</time>
      </trkpt>
      <trkpt lat="49.95164" lon="1.98463">
        <ele>65.3</ele>
        <time>2013-11-17T09:36:19Z</time>
      </trkpt>
      <trkpt lat="49.95178" lon="1.98464">
        <ele>66</ele>
        <time>2013-11-17T09:36:28Z</time>
      </trkpt>
      <trkpt lat="49.9519" lon="1.98451">
        <ele>66.7</ele>
        <time>2013-11-17T09:36:36Z</time>
      </trkpt>
      <trkpt lat="49.95201" lon="1.98438">
        <ele>68</ele>
        <time>2013-11-17T09:36:43Z</time>
      </trkpt>
      <trkpt lat="49.9522" lon="1.98451">
        <ele>64.4</ele>
        <time>2013-11-17T09:36:55Z</time>
      </trkpt>
      <trkpt lat="49.9522" lon="1.98451">
        <ele>64.4</ele>
        <time>2013-11-17T09:37:44Z</time>
      </trkpt>
      <trkpt lat="49.95225" lon="1.98471">
        <ele>59.8</ele>
        <time>2013-11-17T09:37:44Z</time>
      </trkpt>
      <trkpt lat="49.95237" lon="1.98482">
        <ele>62.1</ele>
        <time>2013-11-17T09:37:53Z</time>
      </trkpt>
      <trkpt lat="49.9525" lon="1.98492">
        <ele>63.6</ele>
        <time>2013-11-17T09:38:04Z</time>
      </trkpt>
      <trkpt lat="49.95264" lon="1.985">
        <ele>64.3</ele>
        <time>2013-11-17T09:38:10Z</time>
      </trkpt>
      <trkpt lat="49.95276" lon="1.98513">
        <ele>66.6</ele>
        <time>2013-11-17T09:38:27Z</time>
      </trkpt>
      <trkpt lat="49.95289" lon="1.98523">
        <ele>68.4</ele>
        <time>2013-11-17T09:38:39Z</time>
      </trkpt>
      <trkpt lat="49.95303" lon="1.98531">
        <ele>67</ele>
        <time>2013-11-17T09:38:50Z</time>
      </trkpt>
      <trkpt lat="49.95306" lon="1.98551">
        <ele>64.5</ele>
        <time>2013-11-17T09:39:00Z</time>
      </trkpt>
      <trkpt lat="49.95317" lon="1.98564">
        <ele>64.2</ele>
        <time>2013-11-17T09:39:08Z</time>
      </trkpt>
      <trkpt lat="49.95329" lon="1.98577">
        <ele>66.6</ele>
        <time>2013-11-17T09:39:17Z</time>
      </trkpt>
      <trkpt lat="49.95342" lon="1.9859">
        <ele>67.4</ele>
        <time>2013-11-17T09:39:25Z</time>
      </trkpt>
      <trkpt lat="49.95355" lon="1.98598">
        <ele>68.4</ele>
        <time>2013-11-17T09:39:35Z</time>
      </trkpt>
      <trkpt lat="49.95369" lon="1.98607">
        <ele>68.4</ele>
        <time>2013-11-17T09:39:47Z</time>
      </trkpt>
      <trkpt lat="49.95382" lon="1.98616">
        <ele>67.3</ele>
        <time>2013-11-17T09:39:57Z</time>
      </trkpt>
      <trkpt lat="49.95396" lon="1.98613">
        <ele>66.4</ele>
        <time>2013-11-17T09:40:05Z</time>
      </trkpt>
      <trkpt lat="49.9541" lon="1.98614">
        <ele>65.7</ele>
        <time>2013-11-17T09:40:15Z</time>
      </trkpt>
      <trkpt lat="49.95423" lon="1.98606">
        <ele>65.1</ele>
        <time>2013-11-17T09:40:29Z</time>
      </trkpt>
      <trkpt lat="49.95437" lon="1.98604">
        <ele>64.5</ele>
        <time>2013-11-17T09:40:42Z</time>
      </trkpt>
      <trkpt lat="49.95451" lon="1.98602">
        <ele>64.2</ele>
        <time>2013-11-17T09:40:50Z</time>
      </trkpt>
      <trkpt lat="49.95465" lon="1.98604">
        <ele>63.7</ele>
        <time>2013-11-17T09:41:01Z</time>
      </trkpt>
      <trkpt lat="49.95479" lon="1.98605">
        <ele>63.2</ele>
        <time>2013-11-17T09:41:11Z</time>
      </trkpt>
      <trkpt lat="49.95492" lon="1.9861">
        <ele>63.6</ele>
        <time>2013-11-17T09:41:22Z</time>
      </trkpt>
      <trkpt lat="49.95505" lon="1.98618">
        <ele>64.7</ele>
        <time>2013-11-17T09:41:32Z</time>
      </trkpt>
      <trkpt lat="49.95518" lon="1.98624">
        <ele>65.7</ele>
        <time>2013-11-17T09:41:42Z</time>
      </trkpt>
      <trkpt lat="49.95531" lon="1.98631">
        <ele>66.7</ele>
        <time>2013-11-17T09:41:51Z</time>
      </trkpt>
      <trkpt lat="49.95544" lon="1.98642">
        <ele>67.7</ele>
        <time>2013-11-17T09:42:00Z</time>
      </trkpt>
      <trkpt lat="49.95546" lon="1.98664">
        <ele>68.8</ele>
        <time>2013-11-17T09:42:10Z</time>
      </trkpt>
      <trkpt lat="49.95552" lon="1.98683">
        <ele>70</ele>
        <time>2013-11-17T09:42:21Z</time>
      </trkpt>
      <trkpt lat="49.95549" lon="1.98705">
        <ele>68.1</ele>
        <time>2013-11-17T09:42:31Z</time>
      </trkpt>
      <trkpt lat="49.95541" lon="1.98721">
        <ele>66.3</ele>
        <time>2013-11-17T09:42:42Z</time>
      </trkpt>
      <trkpt lat="49.95537" lon="1.98743">
        <ele>65.2</ele>
        <time>2013-11-17T09:42:51Z</time>
      </trkpt>
      <trkpt lat="49.95531" lon="1.98763">
        <ele>64</ele>
        <time>2013-11-17T09:43:00Z</time>
      </trkpt>
      <trkpt lat="49.95525" lon="1.98783">
        <ele>64.5</ele>
        <time>2013-11-17T09:43:11Z</time>
      </trkpt>
      <trkpt lat="49.95517" lon="1.98801">
        <ele>65.1</ele>
        <time>2013-11-17T09:43:24Z</time>
      </trkpt>
      <trkpt lat="49.95507" lon="1.98816">
        <ele>65.6</ele>
        <time>2013-11-17T09:43:34Z</time>
      </trkpt>
      <trkpt lat="49.95497" lon="1.98831">
        <ele>66.1</ele>
        <time>2013-11-17T09:43:45Z</time>
      </trkpt>
      <trkpt lat="49.95486" lon="1.98847">
        <ele>66.6</ele>
        <time>2013-11-17T09:43:55Z</time>
      </trkpt>
      <trkpt lat="49.95477" lon="1.98863">
        <ele>67.3</ele>
        <time>2013-11-17T09:44:06Z</time>
      </trkpt>
      <trkpt lat="49.95467" lon="1.98877">
        <ele>68.9</ele>
        <time>2013-11-17T09:44:17Z</time>
      </trkpt>
      <trkpt lat="49.95459" lon="1.98896">
        <ele>70.3</ele>
        <time>2013-11-17T09:44:27Z</time>
      </trkpt>
      <trkpt lat="49.95452" lon="1.98914">
        <ele>71.9</ele>
        <time>2013-11-17T09:44:39Z</time>
      </trkpt>
      <trkpt lat="49.95442" lon="1.98931">
        <ele>72.9</ele>
        <time>2013-11-17T09:44:50Z</time>
      </trkpt>
      <trkpt lat="49.95434" lon="1.98949">
        <ele>73.7</ele>
        <time>2013-11-17T09:44:59Z</time>
      </trkpt>
      <trkpt lat="49.95426" lon="1.98968">
        <ele>75</ele>
        <time>2013-11-17T09:45:12Z</time>
      </trkpt>
      <trkpt lat="49.95418" lon="1.98986">
        <ele>75.8</ele>
        <time>2013-11-17T09:45:22Z</time>
      </trkpt>
      <trkpt lat="49.95414" lon="1.99006">
        <ele>76.9</ele>
        <time>2013-11-17T09:45:32Z</time>
      </trkpt>
      <trkpt lat="49.95419" lon="1.99026">
        <ele>79.7</ele>
        <time>2013-11-17T09:45:42Z</time>
      </trkpt>
      <trkpt lat="49.9542" lon="1.99047">
        <ele>81.9</ele>
        <time>2013-11-17T09:45:51Z</time>
      </trkpt>
      <trkpt lat="49.95419" lon="1.9907">
        <ele>81.3</ele>
        <time>2013-11-17T09:46:02Z</time>
      </trkpt>
      <trkpt lat="49.95428" lon="1.99087">
        <ele>80.5</ele>
        <time>2013-11-17T09:46:11Z</time>
      </trkpt>
      <trkpt lat="49.95436" lon="1.99104">
        <ele>78.9</ele>
        <time>2013-11-17T09:46:22Z</time>
      </trkpt>
      <trkpt lat="49.9545" lon="1.99111">
        <ele>77.8</ele>
        <time>2013-11-17T09:46:34Z</time>
      </trkpt>
      <trkpt lat="49.95456" lon="1.99131">
        <ele>77.2</ele>
        <time>2013-11-17T09:46:47Z</time>
      </trkpt>
      <trkpt lat="49.95459" lon="1.99153">
        <ele>76.7</ele>
        <time>2013-11-17T09:46:58Z</time>
      </trkpt>
      <trkpt lat="49.9546" lon="1.99173">
        <ele>76.3</ele>
        <time>2013-11-17T09:47:07Z</time>
      </trkpt>
      <trkpt lat="49.95459" lon="1.99195">
        <ele>75.9</ele>
        <time>2013-11-17T09:47:16Z</time>
      </trkpt>
      <trkpt lat="49.95457" lon="1.99216">
        <ele>75.4</ele>
        <time>2013-11-17T09:47:27Z</time>
      </trkpt>
      <trkpt lat="49.95455" lon="1.99237">
        <ele>75.9</ele>
        <time>2013-11-17T09:47:40Z</time>
      </trkpt>
      <trkpt lat="49.95451" lon="1.99259">
        <ele>77.6</ele>
        <time>2013-11-17T09:47:50Z</time>
      </trkpt>
      <trkpt lat="49.95447" lon="1.99279">
        <ele>78.9</ele>
        <time>2013-11-17T09:48:00Z</time>
      </trkpt>
      <trkpt lat="49.95447" lon="1.993">
        <ele>79.8</ele>
        <time>2013-11-17T09:48:09Z</time>
      </trkpt>
      <trkpt lat="49.95448" lon="1.99321">
        <ele>80.7</ele>
        <time>2013-11-17T09:48:17Z</time>
      </trkpt>
      <trkpt lat="49.95452" lon="1.99342">
        <ele>80.1</ele>
        <time>2013-11-17T09:48:28Z</time>
      </trkpt>
      <trkpt lat="49.95451" lon="1.99363">
        <ele>78.6</ele>
        <time>2013-11-17T09:48:42Z</time>
      </trkpt>
      <trkpt lat="49.95449" lon="1.99385">
        <ele>79.3</ele>
        <time>2013-11-17T09:48:53Z</time>
      </trkpt>
      <trkpt lat="49.95447" lon="1.99408">
        <ele>81.8</ele>
        <time>2013-11-17T09:49:04Z</time>
      </trkpt>
      <trkpt lat="49.95446" lon="1.99423">
        <ele>81.2</ele>
        <time>2013-11-17T09:49:11Z</time>
      </trkpt>
      <trkpt lat="49.95433" lon="1.99423">
        <ele>79.8</ele>
        <time>2013-11-17T09:49:21Z</time>
      </trkpt>
      <trkpt lat="49.95418" lon="1.9942">
        <ele>78.2</ele>
        <time>2013-11-17T09:49:30Z</time>
      </trkpt>
      <trkpt lat="49.95405" lon="1.99417">
        <ele>80</ele>
        <time>2013-11-17T09:49:44Z</time>
      </trkpt>
      <trkpt lat="49.9539" lon="1.99416">
        <ele>78.8</ele>
        <time>2013-11-17T09:49:53Z</time>
      </trkpt>
      <trkpt lat="49.95376" lon="1.9941">
        <ele>77.7</ele>
        <time>2013-11-17T09:50:01Z</time>
      </trkpt>
      <trkpt lat="49.95363" lon="1.99405">
        <ele>76.3</ele>
        <time>2013-11-17T09:50:11Z</time>
      </trkpt>
      <trkpt lat="49.95349" lon="1.99407">
        <ele>75.8</ele>
        <time>2013-11-17T09:50:21Z</time>
      </trkpt>
      <trkpt lat="49.95335" lon="1.99399">
        <ele>75.4</ele>
        <time>2013-11-17T09:50:33Z</time>
      </trkpt>
      <trkpt lat="49.95321" lon="1.99391">
        <ele>75.1</ele>
        <time>2013-11-17T09:50:44Z</time>
      </trkpt>
      <trkpt lat="49.95308" lon="1.99383">
        <ele>74.7</ele>
        <time>2013-11-17T09:50:56Z</time>
      </trkpt>
      <trkpt lat="49.95295" lon="1.99379">
        <ele>74.5</ele>
        <time>2013-11-17T09:51:04Z</time>
      </trkpt>
      <trkpt lat="49.95282" lon="1.99374">
        <ele>74.1</ele>
        <time>2013-11-17T09:51:15Z</time>
      </trkpt>
      <trkpt lat="49.95268" lon="1.99368">
        <ele>73.8</ele>
        <time>2013-11-17T09:51:27Z</time>
      </trkpt>
      <trkpt lat="49.95254" lon="1.99366">
        <ele>73.4</ele>
        <time>2013-11-17T09:51:38Z</time>
      </trkpt>
      <trkpt lat="49.95239" lon="1.99363">
        <ele>73.2</ele>
        <time>2013-11-17T09:51:48Z</time>
      </trkpt>
      <trkpt lat="49.95225" lon="1.99357">
        <ele>72.6</ele>
        <time>2013-11-17T09:52:00Z</time>
      </trkpt>
      <trkpt lat="49.95211" lon="1.99356">
        <ele>72.2</ele>
        <time>2013-11-17T09:52:08Z</time>
      </trkpt>
      <trkpt lat="49.95198" lon="1.99363">
        <ele>71.7</ele>
        <time>2013-11-17T09:52:17Z</time>
      </trkpt>
      <trkpt lat="49.95189" lon="1.99382">
        <ele>71.1</ele>
        <time>2013-11-17T09:52:29Z</time>
      </trkpt>
      <trkpt lat="49.95187" lon="1.99404">
        <ele>70.3</ele>
        <time>2013-11-17T09:52:44Z</time>
      </trkpt>
      <trkpt lat="49.9519" lon="1.99427">
        <ele>70.1</ele>
        <time>2013-11-17T09:52:53Z</time>
      </trkpt>
      <trkpt lat="49.95191" lon="1.99449">
        <ele>70.2</ele>
        <time>2013-11-17T09:53:01Z</time>
      </trkpt>
      <trkpt lat="49.95196" lon="1.99471">
        <ele>70.5</ele>
        <time>2013-11-17T09:53:12Z</time>
      </trkpt>
      <trkpt lat="49.95198" lon="1.99493">
        <ele>70.7</ele>
        <time>2013-11-17T09:53:22Z</time>
      </trkpt>
      <trkpt lat="49.95202" lon="1.99515">
        <ele>70.9</ele>
        <time>2013-11-17T09:53:31Z</time>
      </trkpt>
      <trkpt lat="49.952" lon="1.99537">
        <ele>71.1</ele>
        <time>2013-11-17T09:53:44Z</time>
      </trkpt>
      <trkpt lat="49.95193" lon="1.99556">
        <ele>71.3</ele>
        <time>2013-11-17T09:53:54Z</time>
      </trkpt>
      <trkpt lat="49.95189" lon="1.99578">
        <ele>71.6</ele>
        <time>2013-11-17T09:54:05Z</time>
      </trkpt>
      <trkpt lat="49.95187" lon="1.99599">
        <ele>71.8</ele>
        <time>2013-11-17T09:54:16Z</time>
      </trkpt>
      <trkpt lat="49.95185" lon="1.99622">
        <ele>72</ele>
        <time>2013-11-17T09:54:29Z</time>
      </trkpt>
      <trkpt lat="49.95182" lon="1.99643">
        <ele>72.2</ele>
        <time>2013-11-17T09:54:39Z</time>
      </trkpt>
      <trkpt lat="49.95177" lon="1.99664">
        <ele>72.4</ele>
        <time>2013-11-17T09:54:48Z</time>
      </trkpt>
      <trkpt lat="49.95177" lon="1.99686">
        <ele>72.7</ele>
        <time>2013-11-17T09:55:02Z</time>
      </trkpt>
      <trkpt lat="49.95178" lon="1.99708">
        <ele>73</ele>
        <time>2013-11-17T09:55:14Z</time>
      </trkpt>
      <trkpt lat="49.95183" lon="1.99729">
        <ele>73.7</ele>
        <time>2013-11-17T09:55:24Z</time>
      </trkpt>
      <trkpt lat="49.95192" lon="1.99748">
        <ele>74.7</ele>
        <time>2013-11-17T09:55:35Z</time>
      </trkpt>
      <trkpt lat="49.952" lon="1.99765">
        <ele>75</ele>
        <time>2013-11-17T09:55:43Z</time>
      </trkpt>
      <trkpt lat="49.95209" lon="1.99781">
        <ele>75.8</ele>
        <time>2013-11-17T09:55:56Z</time>
      </trkpt>
      <trkpt lat="49.95213" lon="1.99803">
        <ele>76.5</ele>
        <time>2013-11-17T09:56:07Z</time>
      </trkpt>
      <trkpt lat="49.95217" lon="1.99824">
        <ele>77.2</ele>
        <time>2013-11-17T09:56:17Z</time>
      </trkpt>
      <trkpt lat="49.95225" lon="1.99844">
        <ele>77.8</ele>
        <time>2013-11-17T09:56:30Z</time>
      </trkpt>
      <trkpt lat="49.95234" lon="1.99861">
        <ele>76.4</ele>
        <time>2013-11-17T09:56:38Z</time>
      </trkpt>
      <trkpt lat="49.95239" lon="1.9988">
        <ele>75.3</ele>
        <time>2013-11-17T09:56:52Z</time>
      </trkpt>
      <trkpt lat="49.9524" lon="1.99902">
        <ele>75.9</ele>
        <time>2013-11-17T09:57:05Z</time>
      </trkpt>
      <trkpt lat="49.95251" lon="1.99917">
        <ele>76.5</ele>
        <time>2013-11-17T09:57:16Z</time>
      </trkpt>
      <trkpt lat="49.95251" lon="1.99938">
        <ele>77</ele>
        <time>2013-11-17T09:57:26Z</time>
      </trkpt>
      <trkpt lat="49.95242" lon="1.99954">
        <ele>77.7</ele>
        <time>2013-11-17T09:57:41Z</time>
      </trkpt>
      <trkpt lat="49.95235" lon="1.99973">
        <ele>78.7</ele>
        <time>2013-11-17T09:57:55Z</time>
      </trkpt>
      <trkpt lat="49.95222" lon="1.99984">
        <ele>79.6</ele>
        <time>2013-11-17T09:58:05Z</time>
      </trkpt>
      <trkpt lat="49.95211" lon="1.99999">
        <ele>80.6</ele>
        <time>2013-11-17T09:58:17Z</time>
      </trkpt>
      <trkpt lat="49.95203" lon="2.00017">
        <ele>79.1</ele>
        <time>2013-11-17T09:58:27Z</time>
      </trkpt>
      <trkpt lat="49.95201" lon="2.00038">
        <ele>76</ele>
        <time>2013-11-17T09:58:37Z</time>
      </trkpt>
      <trkpt lat="49.95204" lon="2.0006">
        <ele>73.9</ele>
        <time>2013-11-17T09:58:46Z</time>
      </trkpt>
      <trkpt lat="49.95203" lon="2.00081">
        <ele>72.3</ele>
        <time>2013-11-17T09:58:56Z</time>
      </trkpt>
      <trkpt lat="49.95202" lon="2.00104">
        <ele>73.8</ele>
        <time>2013-11-17T09:59:07Z</time>
      </trkpt>
      <trkpt lat="49.95208" lon="2.00124">
        <ele>75.2</ele>
        <time>2013-11-17T09:59:17Z</time>
      </trkpt>
      <trkpt lat="49.95211" lon="2.00145">
        <ele>77.8</ele>
        <time>2013-11-17T09:59:32Z</time>
      </trkpt>
      <trkpt lat="49.95212" lon="2.00168">
        <ele>79.9</ele>
        <time>2013-11-17T09:59:41Z</time>
      </trkpt>
      <trkpt lat="49.9522" lon="2.00187">
        <ele>81.6</ele>
        <time>2013-11-17T09:59:51Z</time>
      </trkpt>
      <trkpt lat="49.95227" lon="2.00206">
        <ele>78</ele>
        <time>2013-11-17T10:00:07Z</time>
      </trkpt>
      <trkpt lat="49.95234" lon="2.00225">
        <ele>78.5</ele>
        <time>2013-11-17T10:00:18Z</time>
      </trkpt>
      <trkpt lat="49.95247" lon="2.00235">
        <ele>78.8</ele>
        <time>2013-11-17T10:00:25Z</time>
      </trkpt>
      <trkpt lat="49.95255" lon="2.00253">
        <ele>79.4</ele>
        <time>2013-11-17T10:00:39Z</time>
      </trkpt>
      <trkpt lat="49.95264" lon="2.00269">
        <ele>79.9</ele>
        <time>2013-11-17T10:00:52Z</time>
      </trkpt>
      <trkpt lat="49.95276" lon="2.0028">
        <ele>80.3</ele>
        <time>2013-11-17T10:01:01Z</time>
      </trkpt>
      <trkpt lat="49.95277" lon="2.00302">
        <ele>80.8</ele>
        <time>2013-11-17T10:01:13Z</time>
      </trkpt>
      <trkpt lat="49.9528" lon="2.00325">
        <ele>82.7</ele>
        <time>2013-11-17T10:01:27Z</time>
      </trkpt>
      <trkpt lat="49.95279" lon="2.00347">
        <ele>84.8</ele>
        <time>2013-11-17T10:01:38Z</time>
      </trkpt>
      <trkpt lat="49.95275" lon="2.00367">
        <ele>86</ele>
        <time>2013-11-17T10:01:45Z</time>
      </trkpt>
      <trkpt lat="49.95266" lon="2.00386">
        <ele>85</ele>
        <time>2013-11-17T10:01:56Z</time>
      </trkpt>
      <trkpt lat="49.95267" lon="2.00409">
        <ele>83.5</ele>
        <time>2013-11-17T10:02:08Z</time>
      </trkpt>
      <trkpt lat="49.95272" lon="2.0043">
        <ele>81.8</ele>
        <time>2013-11-17T10:02:22Z</time>
      </trkpt>
      <trkpt lat="49.95267" lon="2.0045">
        <ele>81</ele>
        <time>2013-11-17T10:02:29Z</time>
      </trkpt>
      <trkpt lat="49.95266" lon="2.00471">
        <ele>79.2</ele>
        <time>2013-11-17T10:02:39Z</time>
      </trkpt>
      <trkpt lat="49.95263" lon="2.00492">
        <ele>78</ele>
        <time>2013-11-17T10:02:48Z</time>
      </trkpt>
      <trkpt lat="49.95257" lon="2.00512">
        <ele>76.1</ele>
        <time>2013-11-17T10:03:03Z</time>
      </trkpt>
      <trkpt lat="49.95261" lon="2.00533">
        <ele>74</ele>
        <time>2013-11-17T10:03:17Z</time>
      </trkpt>
      <trkpt lat="49.95257" lon="2.00555">
        <ele>74</ele>
        <time>2013-11-17T10:03:27Z</time>
      </trkpt>
      <trkpt lat="49.95249" lon="2.00573">
        <ele>74.7</ele>
        <time>2013-11-17T10:03:42Z</time>
      </trkpt>
      <trkpt lat="49.95244" lon="2.00592">
        <ele>75.3</ele>
        <time>2013-11-17T10:03:57Z</time>
      </trkpt>
      <trkpt lat="49.95237" lon="2.00612">
        <ele>75.6</ele>
        <time>2013-11-17T10:04:03Z</time>
      </trkpt>
      <trkpt lat="49.95238" lon="2.00634">
        <ele>75.9</ele>
        <time>2013-11-17T10:04:10Z</time>
      </trkpt>
      <trkpt lat="49.9524" lon="2.0066">
        <ele>76.6</ele>
        <time>2013-11-17T10:04:27Z</time>
      </trkpt>
      <trkpt lat="49.95246" lon="2.00681">
        <ele>76.8</ele>
        <time>2013-11-17T10:04:40Z</time>
      </trkpt>
      <trkpt lat="49.95242" lon="2.00701">
        <ele>76.5</ele>
        <time>2013-11-17T10:04:46Z</time>
      </trkpt>
      <trkpt lat="49.95232" lon="2.00718">
        <ele>76.2</ele>
        <time>2013-11-17T10:04:53Z</time>
      </trkpt>
      <trkpt lat="49.95232" lon="2.00742">
        <ele>75.9</ele>
        <time>2013-11-17T10:05:02Z</time>
      </trkpt>
      <trkpt lat="49.95227" lon="2.00762">
        <ele>75.5</ele>
        <time>2013-11-17T10:05:11Z</time>
      </trkpt>
      <trkpt lat="49.95222" lon="2.00783">
        <ele>75.1</ele>
        <time>2013-11-17T10:05:20Z</time>
      </trkpt>
      <trkpt lat="49.95225" lon="2.00805">
        <ele>74.7</ele>
        <time>2013-11-17T10:05:30Z</time>
      </trkpt>
      <trkpt lat="49.95227" lon="2.00826">
        <ele>74.3</ele>
        <time>2013-11-17T10:05:39Z</time>
      </trkpt>
      <trkpt lat="49.9523" lon="2.0085">
        <ele>73</ele>
        <time>2013-11-17T10:05:49Z</time>
      </trkpt>
      <trkpt lat="49.95229" lon="2.00872">
        <ele>71.3</ele>
        <time>2013-11-17T10:05:57Z</time>
      </trkpt>
      <trkpt lat="49.95224" lon="2.00894">
        <ele>72</ele>
        <time>2013-11-17T10:06:08Z</time>
      </trkpt>
      <trkpt lat="49.95228" lon="2.00917">
        <ele>72.7</ele>
        <time>2013-11-17T10:06:19Z</time>
      </trkpt>
      <trkpt lat="49.95219" lon="2.00933">
        <ele>73.4</ele>
        <time>2013-11-17T10:06:29Z</time>
      </trkpt>
      <trkpt lat="49.95215" lon="2.00954">
        <ele>73.9</ele>
        <time>2013-11-17T10:06:37Z</time>
      </trkpt>
      <trkpt lat="49.95213" lon="2.00975">
        <ele>72.5</ele>
        <time>2013-11-17T10:06:49Z</time>
      </trkpt>
      <trkpt lat="49.9521" lon="2.00997">
        <ele>71.3</ele>
        <time>2013-11-17T10:06:57Z</time>
      </trkpt>
      <trkpt lat="49.9521" lon="2.0102">
        <ele>70.1</ele>
        <time>2013-11-17T10:07:06Z</time>
      </trkpt>
      <trkpt lat="49.95205" lon="2.01041">
        <ele>68.8</ele>
        <time>2013-11-17T10:07:15Z</time>
      </trkpt>
      <trkpt lat="49.95203" lon="2.01063">
        <ele>67.4</ele>
        <time>2013-11-17T10:07:30Z</time>
      </trkpt>
      <trkpt lat="49.95198" lon="2.01084">
        <ele>66.6</ele>
        <time>2013-11-17T10:07:41Z</time>
      </trkpt>
      <trkpt lat="49.95201" lon="2.01104">
        <ele>65.6</ele>
        <time>2013-11-17T10:07:55Z</time>
      </trkpt>
      <trkpt lat="49.95199" lon="2.01127">
        <ele>64.8</ele>
        <time>2013-11-17T10:08:06Z</time>
      </trkpt>
      <trkpt lat="49.95197" lon="2.01149">
        <ele>64.3</ele>
        <time>2013-11-17T10:08:13Z</time>
      </trkpt>
      <trkpt lat="49.95189" lon="2.01171">
        <ele>64</ele>
        <time>2013-11-17T10:08:19Z</time>
      </trkpt>
      <trkpt lat="49.9518" lon="2.01189">
        <ele>63.7</ele>
        <time>2013-11-17T10:08:29Z</time>
      </trkpt>
      <trkpt lat="49.95179" lon="2.0121">
        <ele>63.5</ele>
        <time>2013-11-17T10:08:39Z</time>
      </trkpt>
      <trkpt lat="49.95176" lon="2.01231">
        <ele>63.3</ele>
        <time>2013-11-17T10:08:49Z</time>
      </trkpt>
      <trkpt lat="49.95179" lon="2.01252">
        <ele>63.1</ele>
        <time>2013-11-17T10:08:57Z</time>
      </trkpt>
      <trkpt lat="49.95184" lon="2.01272">
        <ele>62.9</ele>
        <time>2013-11-17T10:09:07Z</time>
      </trkpt>
      <trkpt lat="49.95181" lon="2.0129">
        <ele>62.6</ele>
        <time>2013-11-17T10:09:20Z</time>
      </trkpt>
      <trkpt lat="49.95179" lon="2.01312">
        <ele>62.2</ele>
        <time>2013-11-17T10:09:37Z</time>
      </trkpt>
      <trkpt lat="49.95167" lon="2.01322">
        <ele>62</ele>
        <time>2013-11-17T10:09:43Z</time>
      </trkpt>
      <trkpt lat="49.95166" lon="2.01344">
        <ele>62</ele>
        <time>2013-11-17T10:09:47Z</time>
      </trkpt>
      <trkpt lat="49.95167" lon="2.01367">
        <ele>61.9</ele>
        <time>2013-11-17T10:09:51Z</time>
      </trkpt>
      <trkpt lat="49.95166" lon="2.01388">
        <ele>61.7</ele>
        <time>2013-11-17T10:09:56Z</time>
      </trkpt>
      <trkpt lat="49.9516" lon="2.01401">
        <ele>61.6</ele>
        <time>2013-11-17T10:10:03Z</time>
      </trkpt>
      <trkpt lat="49.95165" lon="2.01423">
        <ele>61.3</ele>
        <time>2013-11-17T10:10:15Z</time>
      </trkpt>
      <trkpt lat="49.95147" lon="2.01474">
        <ele>61.2</ele>
        <time>2013-11-17T10:10:20Z</time>
      </trkpt>
      <trkpt lat="49.95154" lon="2.01494">
        <ele>59.9</ele>
        <time>2013-11-17T10:10:52Z</time>
      </trkpt>
      <trkpt lat="49.95149" lon="2.01502">
        <ele>59.7</ele>
        <time>2013-11-17T10:10:56Z</time>
      </trkpt>
      <trkpt lat="49.95154" lon="2.01523">
        <ele>59.3</ele>
        <time>2013-11-17T10:11:04Z</time>
      </trkpt>
      <trkpt lat="49.95156" lon="2.01547">
        <ele>58.9</ele>
        <time>2013-11-17T10:11:11Z</time>
      </trkpt>
      <trkpt lat="49.95156" lon="2.01568">
        <ele>58.2</ele>
        <time>2013-11-17T10:11:25Z</time>
      </trkpt>
      <trkpt lat="49.95144" lon="2.01581">
        <ele>57.8</ele>
        <time>2013-11-17T10:11:33Z</time>
      </trkpt>
      <trkpt lat="49.95143" lon="2.01609">
        <ele>57.3</ele>
        <time>2013-11-17T10:11:43Z</time>
      </trkpt>
      <trkpt lat="49.95146" lon="2.01628">
        <ele>56.5</ele>
        <time>2013-11-17T10:12:00Z</time>
      </trkpt>
      <trkpt lat="49.9514" lon="2.01635">
        <ele>56.1</ele>
        <time>2013-11-17T10:12:07Z</time>
      </trkpt>
      <trkpt lat="49.95149" lon="2.01653">
        <ele>54.1</ele>
        <time>2013-11-17T10:12:17Z</time>
      </trkpt>
      <trkpt lat="49.95153" lon="2.01674">
        <ele>54</ele>
        <time>2013-11-17T10:12:23Z</time>
      </trkpt>
      <trkpt lat="49.95157" lon="2.01689">
        <ele>55.3</ele>
        <time>2013-11-17T10:12:32Z</time>
      </trkpt>
      <trkpt lat="49.95145" lon="2.01702">
        <ele>54.6</ele>
        <time>2013-11-17T10:12:38Z</time>
      </trkpt>
      <trkpt lat="49.95133" lon="2.01713">
        <ele>53.2</ele>
        <time>2013-11-17T10:12:48Z</time>
      </trkpt>
      <trkpt lat="49.95127" lon="2.01737">
        <ele>52.3</ele>
        <time>2013-11-17T10:12:55Z</time>
      </trkpt>
      <trkpt lat="49.95119" lon="2.01755">
        <ele>51.1</ele>
        <time>2013-11-17T10:13:05Z</time>
      </trkpt>
      <trkpt lat="49.95117" lon="2.01776">
        <ele>53.6</ele>
        <time>2013-11-17T10:13:11Z</time>
      </trkpt>
      <trkpt lat="49.95117" lon="2.01801">
        <ele>49.7</ele>
        <time>2013-11-17T10:13:24Z</time>
      </trkpt>
      <trkpt lat="49.95116" lon="2.0182">
        <ele>48.5</ele>
        <time>2013-11-17T10:13:34Z</time>
      </trkpt>
      <trkpt lat="49.95117" lon="2.01842">
        <ele>48.1</ele>
        <time>2013-11-17T10:13:46Z</time>
      </trkpt>
      <trkpt lat="49.95115" lon="2.0186">
        <ele>45.9</ele>
        <time>2013-11-17T10:13:53Z</time>
      </trkpt>
      <trkpt lat="49.95101" lon="2.01871">
        <ele>44.3</ele>
        <time>2013-11-17T10:13:58Z</time>
      </trkpt>
      <trkpt lat="49.95098" lon="2.01867">
        <ele>44</ele>
        <time>2013-11-17T10:13:59Z</time>
      </trkpt>
      <trkpt lat="49.95094" lon="2.01839">
        <ele>45.1</ele>
        <time>2013-11-17T10:14:00Z</time>
      </trkpt>
      <trkpt lat="49.95093" lon="2.01837">
        <ele>51.2</ele>
        <time>2013-11-17T10:14:06Z</time>
      </trkpt>
      <trkpt lat="49.95086" lon="2.01853">
        <ele>57.9</ele>
        <time>2013-11-17T10:14:24Z</time>
      </trkpt>
      <trkpt lat="49.95086" lon="2.01853">
        <ele>57.9</ele>
        <time>2013-11-17T10:18:25Z</time>
      </trkpt>
      <trkpt lat="49.95078" lon="2.01846">
        <ele>62.8</ele>
        <time>2013-11-17T10:18:27Z</time>
      </trkpt>
      <trkpt lat="49.95077" lon="2.01853">
        <ele>63</ele>
        <time>2013-11-17T10:18:38Z</time>
      </trkpt>
      <trkpt lat="49.95086" lon="2.01847">
        <ele>64.1</ele>
        <time>2013-11-17T10:18:56Z</time>
      </trkpt>
      <trkpt lat="49.95086" lon="2.01847">
        <ele>64.1</ele>
        <time>2013-11-17T10:19:53Z</time>
      </trkpt>
      <trkpt lat="49.95087" lon="2.01836">
        <ele>64.9</ele>
        <time>2013-11-17T10:19:53Z</time>
      </trkpt>
      <trkpt lat="49.9508" lon="2.01816">
        <ele>64.9</ele>
        <time>2013-11-17T10:20:08Z</time>
      </trkpt>
      <trkpt lat="49.95068" lon="2.01803">
        <ele>64.7</ele>
        <time>2013-11-17T10:20:17Z</time>
      </trkpt>
      <trkpt lat="49.95063" lon="2.01825">
        <ele>64.5</ele>
        <time>2013-11-17T10:20:32Z</time>
      </trkpt>
      <trkpt lat="49.95062" lon="2.01844">
        <ele>64.2</ele>
        <time>2013-11-17T10:20:51Z</time>
      </trkpt>
      <trkpt lat="49.95071" lon="2.01861">
        <ele>64.1</ele>
        <time>2013-11-17T10:20:58Z</time>
      </trkpt>
      <trkpt lat="49.95073" lon="2.01882">
        <ele>64</ele>
        <time>2013-11-17T10:21:04Z</time>
      </trkpt>
      <trkpt lat="49.95078" lon="2.01902">
        <ele>63.9</ele>
        <time>2013-11-17T10:21:08Z</time>
      </trkpt>
      <trkpt lat="49.95103" lon="2.01908">
        <ele>63.8</ele>
        <time>2013-11-17T10:21:14Z</time>
      </trkpt>
      <trkpt lat="49.95107" lon="2.01906">
        <ele>63.7</ele>
        <time>2013-11-17T10:21:22Z</time>
      </trkpt>
      <trkpt lat="49.95089" lon="2.01887">
        <ele>63.7</ele>
        <time>2013-11-17T10:21:23Z</time>
      </trkpt>
      <trkpt lat="49.95092" lon="2.019">
        <ele>63.6</ele>
        <time>2013-11-17T10:21:29Z</time>
      </trkpt>
      <trkpt lat="49.95089" lon="2.01926">
        <ele>63.4</ele>
        <time>2013-11-17T10:21:39Z</time>
      </trkpt>
      <trkpt lat="49.9508" lon="2.01946">
        <ele>63.3</ele>
        <time>2013-11-17T10:21:45Z</time>
      </trkpt>
      <trkpt lat="49.95078" lon="2.01953">
        <ele>63.3</ele>
        <time>2013-11-17T10:21:47Z</time>
      </trkpt>
      <trkpt lat="49.95063" lon="2.01959">
        <ele>63.1</ele>
        <time>2013-11-17T10:21:57Z</time>
      </trkpt>
      <trkpt lat="49.95052" lon="2.01969">
        <ele>63.1</ele>
        <time>2013-11-17T10:22:00Z</time>
      </trkpt>
      <trkpt lat="49.95039" lon="2.01994">
        <ele>63</ele>
        <time>2013-11-17T10:22:05Z</time>
      </trkpt>
      <trkpt lat="49.95043" lon="2.02015">
        <ele>62.8</ele>
        <time>2013-11-17T10:22:17Z</time>
      </trkpt>
      <trkpt lat="49.95046" lon="2.02036">
        <ele>62.8</ele>
        <time>2013-11-17T10:22:21Z</time>
      </trkpt>
      <trkpt lat="49.95042" lon="2.02057">
        <ele>62.6</ele>
        <time>2013-11-17T10:22:29Z</time>
      </trkpt>
      <trkpt lat="49.95038" lon="2.02078">
        <ele>62.5</ele>
        <time>2013-11-17T10:22:38Z</time>
      </trkpt>
      <trkpt lat="49.95031" lon="2.02103">
        <ele>62.3</ele>
        <time>2013-11-17T10:22:48Z</time>
      </trkpt>
      <trkpt lat="49.95028" lon="2.02118">
        <ele>62.1</ele>
        <time>2013-11-17T10:23:01Z</time>
      </trkpt>
      <trkpt lat="49.95021" lon="2.02137">
        <ele>63.1</ele>
        <time>2013-11-17T10:23:16Z</time>
      </trkpt>
      <trkpt lat="49.95015" lon="2.02156">
        <ele>64.5</ele>
        <time>2013-11-17T10:23:24Z</time>
      </trkpt>
      <trkpt lat="49.95018" lon="2.02176">
        <ele>64.7</ele>
        <time>2013-11-17T10:23:30Z</time>
      </trkpt>
      <trkpt lat="49.95024" lon="2.02184">
        <ele>64</ele>
        <time>2013-11-17T10:23:38Z</time>
      </trkpt>
      <trkpt lat="49.95019" lon="2.02206">
        <ele>62.9</ele>
        <time>2013-11-17T10:23:50Z</time>
      </trkpt>
      <trkpt lat="49.95015" lon="2.02228">
        <ele>62.3</ele>
        <time>2013-11-17T10:23:57Z</time>
      </trkpt>
      <trkpt lat="49.95014" lon="2.02236">
        <ele>62</ele>
        <time>2013-11-17T10:24:00Z</time>
      </trkpt>
      <trkpt lat="49.95023" lon="2.02232">
        <ele>61.5</ele>
        <time>2013-11-17T10:24:06Z</time>
      </trkpt>
      <trkpt lat="49.95028" lon="2.02246">
        <ele>60.4</ele>
        <time>2013-11-17T10:24:12Z</time>
      </trkpt>
      <trkpt lat="49.95026" lon="2.02293">
        <ele>59.6</ele>
        <time>2013-11-17T10:24:27Z</time>
      </trkpt>
      <trkpt lat="49.95026" lon="2.02293">
        <ele>59.6</ele>
        <time>2013-11-17T10:25:09Z</time>
      </trkpt>
      <trkpt lat="49.95026" lon="2.02315">
        <ele>64.3</ele>
        <time>2013-11-17T10:25:16Z</time>
      </trkpt>
      <trkpt lat="49.95026" lon="2.02337">
        <ele>67.3</ele>
        <time>2013-11-17T10:25:28Z</time>
      </trkpt>
      <trkpt lat="49.95027" lon="2.02359">
        <ele>67.3</ele>
        <time>2013-11-17T10:25:39Z</time>
      </trkpt>
      <trkpt lat="49.95024" lon="2.0238">
        <ele>66.3</ele>
        <time>2013-11-17T10:25:51Z</time>
      </trkpt>
      <trkpt lat="49.95022" lon="2.02404">
        <ele>65.2</ele>
        <time>2013-11-17T10:26:01Z</time>
      </trkpt>
      <trkpt lat="49.95019" lon="2.02425">
        <ele>64</ele>
        <time>2013-11-17T10:26:11Z</time>
      </trkpt>
      <trkpt lat="49.95015" lon="2.02446">
        <ele>62.4</ele>
        <time>2013-11-17T10:26:25Z</time>
      </trkpt>
      <trkpt lat="49.9501" lon="2.02467">
        <ele>63.3</ele>
        <time>2013-11-17T10:26:35Z</time>
      </trkpt>
      <trkpt lat="49.95009" lon="2.02489">
        <ele>65.8</ele>
        <time>2013-11-17T10:26:48Z</time>
      </trkpt>
      <trkpt lat="49.95007" lon="2.02497">
        <ele>66.4</ele>
        <time>2013-11-17T10:26:56Z</time>
      </trkpt>
      <trkpt lat="49.95006" lon="2.02493">
        <ele>66.5</ele>
        <time>2013-11-17T10:26:58Z</time>
      </trkpt>
      <trkpt lat="49.95" lon="2.02514">
        <ele>67.4</ele>
        <time>2013-11-17T10:27:12Z</time>
      </trkpt>
      <trkpt lat="49.95" lon="2.02536">
        <ele>67.9</ele>
        <time>2013-11-17T10:27:21Z</time>
      </trkpt>
      <trkpt lat="49.95002" lon="2.02563">
        <ele>68.1</ele>
        <time>2013-11-17T10:27:24Z</time>
      </trkpt>
      <trkpt lat="49.94996" lon="2.02583">
        <ele>68.8</ele>
        <time>2013-11-17T10:27:35Z</time>
      </trkpt>
      <trkpt lat="49.94994" lon="2.02604">
        <ele>66.1</ele>
        <time>2013-11-17T10:27:42Z</time>
      </trkpt>
      <trkpt lat="49.94986" lon="2.02624">
        <ele>64.8</ele>
        <time>2013-11-17T10:27:54Z</time>
      </trkpt>
      <trkpt lat="49.94983" lon="2.02647">
        <ele>65.4</ele>
        <time>2013-11-17T10:28:01Z</time>
      </trkpt>
      <trkpt lat="49.94976" lon="2.0267">
        <ele>66.9</ele>
        <time>2013-11-17T10:28:17Z</time>
      </trkpt>
      <trkpt lat="49.9497" lon="2.02691">
        <ele>60.9</ele>
        <time>2013-11-17T10:28:32Z</time>
      </trkpt>
      <trkpt lat="49.94959" lon="2.02706">
        <ele>60</ele>
        <time>2013-11-17T10:28:39Z</time>
      </trkpt>
      <trkpt lat="49.94962" lon="2.02727">
        <ele>59</ele>
        <time>2013-11-17T10:28:47Z</time>
      </trkpt>
      <trkpt lat="49.94959" lon="2.0275">
        <ele>58.5</ele>
        <time>2013-11-17T10:28:56Z</time>
      </trkpt>
      <trkpt lat="49.94955" lon="2.02773">
        <ele>57.8</ele>
        <time>2013-11-17T10:29:07Z</time>
      </trkpt>
      <trkpt lat="49.94953" lon="2.02795">
        <ele>57.1</ele>
        <time>2013-11-17T10:29:19Z</time>
      </trkpt>
      <trkpt lat="49.9495" lon="2.02816">
        <ele>56.8</ele>
        <time>2013-11-17T10:29:28Z</time>
      </trkpt>
      <trkpt lat="49.94945" lon="2.02836">
        <ele>54.5</ele>
        <time>2013-11-17T10:29:39Z</time>
      </trkpt>
      <trkpt lat="49.94943" lon="2.02858">
        <ele>53.9</ele>
        <time>2013-11-17T10:29:50Z</time>
      </trkpt>
      <trkpt lat="49.94939" lon="2.02879">
        <ele>53.3</ele>
        <time>2013-11-17T10:29:59Z</time>
      </trkpt>
      <trkpt lat="49.9493" lon="2.02899">
        <ele>52.5</ele>
        <time>2013-11-17T10:30:12Z</time>
      </trkpt>
      <trkpt lat="49.94925" lon="2.0292">
        <ele>52.4</ele>
        <time>2013-11-17T10:30:23Z</time>
      </trkpt>
      <trkpt lat="49.94922" lon="2.02941">
        <ele>55</ele>
        <time>2013-11-17T10:30:34Z</time>
      </trkpt>
      <trkpt lat="49.94919" lon="2.02961">
        <ele>55.7</ele>
        <time>2013-11-17T10:30:42Z</time>
      </trkpt>
      <trkpt lat="49.94915" lon="2.02983">
        <ele>54.7</ele>
        <time>2013-11-17T10:30:53Z</time>
      </trkpt>
      <trkpt lat="49.94908" lon="2.03004">
        <ele>53.9</ele>
        <time>2013-11-17T10:31:03Z</time>
      </trkpt>
      <trkpt lat="49.94901" lon="2.03023">
        <ele>53</ele>
        <time>2013-11-17T10:31:13Z</time>
      </trkpt>
      <trkpt lat="49.94894" lon="2.03043">
        <ele>52.2</ele>
        <time>2013-11-17T10:31:25Z</time>
      </trkpt>
      <trkpt lat="49.94884" lon="2.03058">
        <ele>51.5</ele>
        <time>2013-11-17T10:31:34Z</time>
      </trkpt>
      <trkpt lat="49.94874" lon="2.03071">
        <ele>50.8</ele>
        <time>2013-11-17T10:31:45Z</time>
      </trkpt>
      <trkpt lat="49.94869" lon="2.03092">
        <ele>51.4</ele>
        <time>2013-11-17T10:32:02Z</time>
      </trkpt>
      <trkpt lat="49.94863" lon="2.03112">
        <ele>53</ele>
        <time>2013-11-17T10:32:07Z</time>
      </trkpt>
      <trkpt lat="49.94855" lon="2.0313">
        <ele>55.1</ele>
        <time>2013-11-17T10:32:18Z</time>
      </trkpt>
      <trkpt lat="49.94846" lon="2.03146">
        <ele>56.7</ele>
        <time>2013-11-17T10:32:31Z</time>
      </trkpt>
      <trkpt lat="49.94836" lon="2.03161">
        <ele>57.8</ele>
        <time>2013-11-17T10:32:41Z</time>
      </trkpt>
      <trkpt lat="49.94829" lon="2.03181">
        <ele>58.8</ele>
        <time>2013-11-17T10:32:50Z</time>
      </trkpt>
      <trkpt lat="49.9482" lon="2.03198">
        <ele>56.5</ele>
        <time>2013-11-17T10:33:00Z</time>
      </trkpt>
      <trkpt lat="49.94814" lon="2.03217">
        <ele>58.6</ele>
        <time>2013-11-17T10:33:10Z</time>
      </trkpt>
      <trkpt lat="49.94805" lon="2.03234">
        <ele>60.5</ele>
        <time>2013-11-17T10:33:17Z</time>
      </trkpt>
      <trkpt lat="49.94797" lon="2.03252">
        <ele>63.3</ele>
        <time>2013-11-17T10:33:28Z</time>
      </trkpt>
      <trkpt lat="49.94787" lon="2.03268">
        <ele>64</ele>
        <time>2013-11-17T10:33:39Z</time>
      </trkpt>
      <trkpt lat="49.94778" lon="2.03284">
        <ele>64.1</ele>
        <time>2013-11-17T10:33:49Z</time>
      </trkpt>
      <trkpt lat="49.94767" lon="2.03296">
        <ele>65.9</ele>
        <time>2013-11-17T10:34:03Z</time>
      </trkpt>
      <trkpt lat="49.94757" lon="2.03312">
        <ele>68</ele>
        <time>2013-11-17T10:34:14Z</time>
      </trkpt>
      <trkpt lat="49.94746" lon="2.03328">
        <ele>66.6</ele>
        <time>2013-11-17T10:34:25Z</time>
      </trkpt>
      <trkpt lat="49.94736" lon="2.03343">
        <ele>63</ele>
        <time>2013-11-17T10:34:33Z</time>
      </trkpt>
      <trkpt lat="49.94722" lon="2.0335">
        <ele>56.8</ele>
        <time>2013-11-17T10:34:41Z</time>
      </trkpt>
      <trkpt lat="49.94723" lon="2.03359">
        <ele>60.4</ele>
        <time>2013-11-17T10:34:45Z</time>
      </trkpt>
      <trkpt lat="49.94735" lon="2.03371">
        <ele>62.5</ele>
        <time>2013-11-17T10:34:51Z</time>
      </trkpt>
      <trkpt lat="49.94746" lon="2.03382">
        <ele>65</ele>
        <time>2013-11-17T10:34:58Z</time>
      </trkpt>
      <trkpt lat="49.94758" lon="2.03396">
        <ele>67.3</ele>
        <time>2013-11-17T10:35:08Z</time>
      </trkpt>
      <trkpt lat="49.94771" lon="2.03405">
        <ele>68.5</ele>
        <time>2013-11-17T10:35:17Z</time>
      </trkpt>
      <trkpt lat="49.94783" lon="2.03416">
        <ele>69.6</ele>
        <time>2013-11-17T10:35:26Z</time>
      </trkpt>
      <trkpt lat="49.94793" lon="2.03431">
        <ele>67.5</ele>
        <time>2013-11-17T10:35:39Z</time>
      </trkpt>
      <trkpt lat="49.94804" lon="2.03445">
        <ele>64.6</ele>
        <time>2013-11-17T10:35:51Z</time>
      </trkpt>
      <trkpt lat="49.94815" lon="2.03458">
        <ele>62</ele>
        <time>2013-11-17T10:36:02Z</time>
      </trkpt>
      <trkpt lat="49.94827" lon="2.03471">
        <ele>62</ele>
        <time>2013-11-17T10:36:14Z</time>
      </trkpt>
      <trkpt lat="49.9484" lon="2.03479">
        <ele>62</ele>
        <time>2013-11-17T10:36:25Z</time>
      </trkpt>
      <trkpt lat="49.94853" lon="2.03491">
        <ele>63</ele>
        <time>2013-11-17T10:36:36Z</time>
      </trkpt>
      <trkpt lat="49.94864" lon="2.03503">
        <ele>60</ele>
        <time>2013-11-17T10:36:47Z</time>
      </trkpt>
      <trkpt lat="49.94877" lon="2.03513">
        <ele>61.5</ele>
        <time>2013-11-17T10:36:59Z</time>
      </trkpt>
      <trkpt lat="49.94891" lon="2.03522">
        <ele>62.2</ele>
        <time>2013-11-17T10:37:09Z</time>
      </trkpt>
      <trkpt lat="49.94901" lon="2.03536">
        <ele>63</ele>
        <time>2013-11-17T10:37:21Z</time>
      </trkpt>
      <trkpt lat="49.94912" lon="2.03551">
        <ele>63.8</ele>
        <time>2013-11-17T10:37:33Z</time>
      </trkpt>
      <trkpt lat="49.94926" lon="2.03558">
        <ele>67</ele>
        <time>2013-11-17T10:37:40Z</time>
      </trkpt>
      <trkpt lat="49.94938" lon="2.03571">
        <ele>68</ele>
        <time>2013-11-17T10:37:51Z</time>
      </trkpt>
      <trkpt lat="49.94949" lon="2.03584">
        <ele>68.6</ele>
        <time>2013-11-17T10:38:02Z</time>
      </trkpt>
      <trkpt lat="49.9496" lon="2.03598">
        <ele>66.1</ele>
        <time>2013-11-17T10:38:13Z</time>
      </trkpt>
      <trkpt lat="49.94972" lon="2.03608">
        <ele>64.8</ele>
        <time>2013-11-17T10:38:22Z</time>
      </trkpt>
      <trkpt lat="49.94982" lon="2.03625">
        <ele>65.7</ele>
        <time>2013-11-17T10:38:35Z</time>
      </trkpt>
      <trkpt lat="49.94992" lon="2.0364">
        <ele>68</ele>
        <time>2013-11-17T10:38:45Z</time>
      </trkpt>
      <trkpt lat="49.95002" lon="2.03656">
        <ele>68.3</ele>
        <time>2013-11-17T10:38:58Z</time>
      </trkpt>
      <trkpt lat="49.95012" lon="2.03671">
        <ele>68.5</ele>
        <time>2013-11-17T10:39:09Z</time>
      </trkpt>
      <trkpt lat="49.95023" lon="2.03685">
        <ele>68.7</ele>
        <time>2013-11-17T10:39:19Z</time>
      </trkpt>
      <trkpt lat="49.95035" lon="2.03699">
        <ele>68.9</ele>
        <time>2013-11-17T10:39:30Z</time>
      </trkpt>
      <trkpt lat="49.95045" lon="2.03716">
        <ele>69.2</ele>
        <time>2013-11-17T10:39:42Z</time>
      </trkpt>
      <trkpt lat="49.95056" lon="2.03728">
        <ele>69.4</ele>
        <time>2013-11-17T10:39:53Z</time>
      </trkpt>
      <trkpt lat="49.95066" lon="2.03741">
        <ele>69.6</ele>
        <time>2013-11-17T10:40:03Z</time>
      </trkpt>
      <trkpt lat="49.95075" lon="2.03758">
        <ele>69.8</ele>
        <time>2013-11-17T10:40:15Z</time>
      </trkpt>
      <trkpt lat="49.95087" lon="2.03771">
        <ele>70</ele>
        <time>2013-11-17T10:40:24Z</time>
      </trkpt>
      <trkpt lat="49.95096" lon="2.03788">
        <ele>70.2</ele>
        <time>2013-11-17T10:40:35Z</time>
      </trkpt>
      <trkpt lat="49.95106" lon="2.03805">
        <ele>70.4</ele>
        <time>2013-11-17T10:40:43Z</time>
      </trkpt>
      <trkpt lat="49.95115" lon="2.03821">
        <ele>70.6</ele>
        <time>2013-11-17T10:40:54Z</time>
      </trkpt>
      <trkpt lat="49.9512" lon="2.03842">
        <ele>70.8</ele>
        <time>2013-11-17T10:41:05Z</time>
      </trkpt>
      <trkpt lat="49.9513" lon="2.03859">
        <ele>70.8</ele>
        <time>2013-11-17T10:41:16Z</time>
      </trkpt>
      <trkpt lat="49.9514" lon="2.03876">
        <ele>69.4</ele>
        <time>2013-11-17T10:41:26Z</time>
      </trkpt>
      <trkpt lat="49.95147" lon="2.03894">
        <ele>68</ele>
        <time>2013-11-17T10:41:37Z</time>
      </trkpt>
      <trkpt lat="49.95155" lon="2.03913">
        <ele>64.1</ele>
        <time>2013-11-17T10:41:50Z</time>
      </trkpt>
      <trkpt lat="49.95164" lon="2.03929">
        <ele>66.5</ele>
        <time>2013-11-17T10:41:59Z</time>
      </trkpt>
      <trkpt lat="49.95177" lon="2.03942">
        <ele>67.5</ele>
        <time>2013-11-17T10:42:10Z</time>
      </trkpt>
      <trkpt lat="49.95184" lon="2.03961">
        <ele>68.4</ele>
        <time>2013-11-17T10:42:20Z</time>
      </trkpt>
      <trkpt lat="49.95191" lon="2.03978">
        <ele>69.4</ele>
        <time>2013-11-17T10:42:31Z</time>
      </trkpt>
      <trkpt lat="49.95201" lon="2.03993">
        <ele>70.2</ele>
        <time>2013-11-17T10:42:41Z</time>
      </trkpt>
      <trkpt lat="49.95211" lon="2.0401">
        <ele>71.3</ele>
        <time>2013-11-17T10:42:50Z</time>
      </trkpt>
      <trkpt lat="49.95221" lon="2.04026">
        <ele>72.3</ele>
        <time>2013-11-17T10:42:59Z</time>
      </trkpt>
      <trkpt lat="49.95226" lon="2.04047">
        <ele>72.5</ele>
        <time>2013-11-17T10:43:12Z</time>
      </trkpt>
      <trkpt lat="49.95233" lon="2.04066">
        <ele>71.6</ele>
        <time>2013-11-17T10:43:23Z</time>
      </trkpt>
      <trkpt lat="49.95239" lon="2.04085">
        <ele>70.9</ele>
        <time>2013-11-17T10:43:33Z</time>
      </trkpt>
      <trkpt lat="49.95243" lon="2.04107">
        <ele>70</ele>
        <time>2013-11-17T10:43:45Z</time>
      </trkpt>
      <trkpt lat="49.95244" lon="2.0413">
        <ele>64.2</ele>
        <time>2013-11-17T10:43:55Z</time>
      </trkpt>
      <trkpt lat="49.95254" lon="2.04145">
        <ele>62.7</ele>
        <time>2013-11-17T10:44:06Z</time>
      </trkpt>
      <trkpt lat="49.95259" lon="2.04165">
        <ele>62.3</ele>
        <time>2013-11-17T10:44:18Z</time>
      </trkpt>
      <trkpt lat="49.95263" lon="2.04185">
        <ele>62.5</ele>
        <time>2013-11-17T10:44:29Z</time>
      </trkpt>
      <trkpt lat="49.95265" lon="2.04208">
        <ele>62.7</ele>
        <time>2013-11-17T10:44:39Z</time>
      </trkpt>
      <trkpt lat="49.95269" lon="2.04228">
        <ele>63.3</ele>
        <time>2013-11-17T10:44:51Z</time>
      </trkpt>
      <trkpt lat="49.95273" lon="2.04248">
        <ele>67</ele>
        <time>2013-11-17T10:45:01Z</time>
      </trkpt>
      <trkpt lat="49.95275" lon="2.0427">
        <ele>67</ele>
        <time>2013-11-17T10:45:12Z</time>
      </trkpt>
      <trkpt lat="49.9528" lon="2.04289">
        <ele>66.1</ele>
        <time>2013-11-17T10:45:21Z</time>
      </trkpt>
      <trkpt lat="49.95288" lon="2.04305">
        <ele>65.4</ele>
        <time>2013-11-17T10:45:28Z</time>
      </trkpt>
      <trkpt lat="49.95276" lon="2.04316">
        <ele>64.6</ele>
        <time>2013-11-17T10:45:35Z</time>
      </trkpt>
      <trkpt lat="49.95277" lon="2.0434">
        <ele>63.6</ele>
        <time>2013-11-17T10:45:45Z</time>
      </trkpt>
      <trkpt lat="49.95279" lon="2.04361">
        <ele>62.3</ele>
        <time>2013-11-17T10:45:56Z</time>
      </trkpt>
      <trkpt lat="49.95279" lon="2.04383">
        <ele>60.5</ele>
        <time>2013-11-17T10:46:08Z</time>
      </trkpt>
      <trkpt lat="49.9528" lon="2.04405">
        <ele>59</ele>
        <time>2013-11-17T10:46:18Z</time>
      </trkpt>
      <trkpt lat="49.95277" lon="2.04428">
        <ele>55.8</ele>
        <time>2013-11-17T10:46:30Z</time>
      </trkpt>
      <trkpt lat="49.95278" lon="2.0445">
        <ele>53</ele>
        <time>2013-11-17T10:46:39Z</time>
      </trkpt>
      <trkpt lat="49.95281" lon="2.04472">
        <ele>53</ele>
        <time>2013-11-17T10:46:51Z</time>
      </trkpt>
      <trkpt lat="49.95283" lon="2.04494">
        <ele>53</ele>
        <time>2013-11-17T10:47:01Z</time>
      </trkpt>
      <trkpt lat="49.95288" lon="2.04515">
        <ele>53</ele>
        <time>2013-11-17T10:47:11Z</time>
      </trkpt>
      <trkpt lat="49.95292" lon="2.04536">
        <ele>53</ele>
        <time>2013-11-17T10:47:22Z</time>
      </trkpt>
      <trkpt lat="49.9529" lon="2.04558">
        <ele>52.3</ele>
        <time>2013-11-17T10:47:35Z</time>
      </trkpt>
      <trkpt lat="49.95293" lon="2.04575">
        <ele>51.9</ele>
        <time>2013-11-17T10:47:43Z</time>
      </trkpt>
      <trkpt lat="49.95288" lon="2.04589">
        <ele>51.4</ele>
        <time>2013-11-17T10:47:50Z</time>
      </trkpt>
      <trkpt lat="49.95299" lon="2.04605">
        <ele>51.1</ele>
        <time>2013-11-17T10:47:56Z</time>
      </trkpt>
      <trkpt lat="49.95306" lon="2.04624">
        <ele>50.6</ele>
        <time>2013-11-17T10:48:05Z</time>
      </trkpt>
      <trkpt lat="49.95309" lon="2.04644">
        <ele>49.7</ele>
        <time>2013-11-17T10:48:17Z</time>
      </trkpt>
      <trkpt lat="49.9531" lon="2.04665">
        <ele>47.5</ele>
        <time>2013-11-17T10:48:29Z</time>
      </trkpt>
      <trkpt lat="49.9532" lon="2.04681">
        <ele>45.8</ele>
        <time>2013-11-17T10:48:38Z</time>
      </trkpt>
      <trkpt lat="49.95327" lon="2.04701">
        <ele>43.7</ele>
        <time>2013-11-17T10:48:50Z</time>
      </trkpt>
      <trkpt lat="49.95333" lon="2.04721">
        <ele>42.2</ele>
        <time>2013-11-17T10:48:59Z</time>
      </trkpt>
      <trkpt lat="49.95338" lon="2.04742">
        <ele>42.4</ele>
        <time>2013-11-17T10:49:07Z</time>
      </trkpt>
      <trkpt lat="49.95339" lon="2.04764">
        <ele>41.5</ele>
        <time>2013-11-17T10:49:19Z</time>
      </trkpt>
      <trkpt lat="49.95338" lon="2.04785">
        <ele>37.3</ele>
        <time>2013-11-17T10:49:32Z</time>
      </trkpt>
      <trkpt lat="49.95338" lon="2.04806">
        <ele>36</ele>
        <time>2013-11-17T10:49:42Z</time>
      </trkpt>
      <trkpt lat="49.95344" lon="2.04827">
        <ele>34.9</ele>
        <time>2013-11-17T10:49:53Z</time>
      </trkpt>
      <trkpt lat="49.95355" lon="2.04842">
        <ele>34.1</ele>
        <time>2013-11-17T10:50:00Z</time>
      </trkpt>
      <trkpt lat="49.95361" lon="2.04861">
        <ele>32.2</ele>
        <time>2013-11-17T10:50:11Z</time>
      </trkpt>
      <trkpt lat="49.95364" lon="2.04883">
        <ele>27</ele>
        <time>2013-11-17T10:50:23Z</time>
      </trkpt>
      <trkpt lat="49.95372" lon="2.049">
        <ele>24</ele>
        <time>2013-11-17T10:50:32Z</time>
      </trkpt>
      <trkpt lat="49.95381" lon="2.04916">
        <ele>22.3</ele>
        <time>2013-11-17T10:50:41Z</time>
      </trkpt>
      <trkpt lat="49.95381" lon="2.04937">
        <ele>20.4</ele>
        <time>2013-11-17T10:50:54Z</time>
      </trkpt>
      <trkpt lat="49.95389" lon="2.04955">
        <ele>21.6</ele>
        <time>2013-11-17T10:51:04Z</time>
      </trkpt>
      <trkpt lat="49.95386" lon="2.04971">
        <ele>23.3</ele>
        <time>2013-11-17T10:51:11Z</time>
      </trkpt>
      <trkpt lat="49.95381" lon="2.0498">
        <ele>23.1</ele>
        <time>2013-11-17T10:51:16Z</time>
      </trkpt>
      <trkpt lat="49.95384" lon="2.05">
        <ele>19.5</ele>
        <time>2013-11-17T10:51:27Z</time>
      </trkpt>
      <trkpt lat="49.95395" lon="2.05016">
        <ele>21.6</ele>
        <time>2013-11-17T10:51:35Z</time>
      </trkpt>
      <trkpt lat="49.95405" lon="2.05031">
        <ele>24</ele>
        <time>2013-11-17T10:51:44Z</time>
      </trkpt>
      <trkpt lat="49.95417" lon="2.05045">
        <ele>23.9</ele>
        <time>2013-11-17T10:51:53Z</time>
      </trkpt>
      <trkpt lat="49.95419" lon="2.05066">
        <ele>21.7</ele>
        <time>2013-11-17T10:52:03Z</time>
      </trkpt>
      <trkpt lat="49.9543" lon="2.0508">
        <ele>20.9</ele>
        <time>2013-11-17T10:52:13Z</time>
      </trkpt>
      <trkpt lat="49.95443" lon="2.0509">
        <ele>20.5</ele>
        <time>2013-11-17T10:52:19Z</time>
      </trkpt>
      <trkpt lat="49.95455" lon="2.05104">
        <ele>19.8</ele>
        <time>2013-11-17T10:52:27Z</time>
      </trkpt>
      <trkpt lat="49.95463" lon="2.05122">
        <ele>18.9</ele>
        <time>2013-11-17T10:52:39Z</time>
      </trkpt>
      <trkpt lat="49.95471" lon="2.05138">
        <ele>18</ele>
        <time>2013-11-17T10:52:47Z</time>
      </trkpt>
      <trkpt lat="49.95478" lon="2.05151">
        <ele>12.7</ele>
        <time>2013-11-17T10:53:11Z</time>
      </trkpt>
      <trkpt lat="49.95478" lon="2.05151">
        <ele>12.7</ele>
        <time>2013-11-17T10:54:24Z</time>
      </trkpt>
      <trkpt lat="49.95475" lon="2.05159">
        <ele>8.9</ele>
        <time>2013-11-17T10:54:24Z</time>
      </trkpt>
      <trkpt lat="49.95486" lon="2.05173">
        <ele>8.6</ele>
        <time>2013-11-17T10:54:32Z</time>
      </trkpt>
      <trkpt lat="49.95499" lon="2.05185">
        <ele>10.1</ele>
        <time>2013-11-17T10:54:40Z</time>
      </trkpt>
      <trkpt lat="49.9551" lon="2.05192">
        <ele>13.5</ele>
        <time>2013-11-17T10:54:51Z</time>
      </trkpt>
      <trkpt lat="49.95525" lon="2.05188">
        <ele>22.3</ele>
        <time>2013-11-17T10:55:10Z</time>
      </trkpt>
      <trkpt lat="49.95538" lon="2.05191">
        <ele>26.5</ele>
        <time>2013-11-17T10:55:18Z</time>
      </trkpt>
      <trkpt lat="49.95544" lon="2.05195">
        <ele>28</ele>
        <time>2013-11-17T10:55:21Z</time>
      </trkpt>
      <trkpt lat="49.95558" lon="2.05187">
        <ele>27.5</ele>
        <time>2013-11-17T10:55:26Z</time>
      </trkpt>
      <trkpt lat="49.95558" lon="2.052">
        <ele>27.4</ele>
        <time>2013-11-17T10:55:33Z</time>
      </trkpt>
      <trkpt lat="49.95563" lon="2.0519">
        <ele>28.6</ele>
        <time>2013-11-17T10:55:36Z</time>
      </trkpt>
      <trkpt lat="49.95567" lon="2.05211">
        <ele>29.1</ele>
        <time>2013-11-17T10:55:48Z</time>
      </trkpt>
      <trkpt lat="49.95578" lon="2.05226">
        <ele>25.8</ele>
        <time>2013-11-17T10:55:58Z</time>
      </trkpt>
      <trkpt lat="49.95592" lon="2.05229">
        <ele>24.4</ele>
        <time>2013-11-17T10:56:05Z</time>
      </trkpt>
      <trkpt lat="49.95605" lon="2.05238">
        <ele>23.1</ele>
        <time>2013-11-17T10:56:11Z</time>
      </trkpt>
      <trkpt lat="49.95619" lon="2.05242">
        <ele>24.9</ele>
        <time>2013-11-17T10:56:24Z</time>
      </trkpt>
      <trkpt lat="49.95632" lon="2.05241">
        <ele>26.6</ele>
        <time>2013-11-17T10:56:36Z</time>
      </trkpt>
      <trkpt lat="49.95644" lon="2.05255">
        <ele>24.3</ele>
        <time>2013-11-17T10:56:47Z</time>
      </trkpt>
      <trkpt lat="49.95657" lon="2.05262">
        <ele>27.6</ele>
        <time>2013-11-17T10:57:01Z</time>
      </trkpt>
      <trkpt lat="49.95666" lon="2.05246">
        <ele>30</ele>
        <time>2013-11-17T10:57:17Z</time>
      </trkpt>
    </trkseg>
  </trk>
</gpx>